<?xml version='1.0' encoding='UTF-8'?>
<gpx version="1.1" creator="https://www.komoot.de" xmlns="http://www.topografix.com/GPX/1/1" xmlns:xsi="http://www.w3.org/2001/XMLSchema-instance" xsi:schemaLocation="http://www.topografix.com/GPX/1/1 http://www.topografix.com/GPX/1/1/gpx.xsd">
  <metadata>
    <name>Grębków - C</name>
    <author>
      <link href="https://www.komoot.de">
        <text>komoot</text>
        <type>text/html</type>
      </link>
    </author>
  </metadata>
  <trk>
    <name>Grębków - C</name>
    <trkseg>
      <trkpt lat="52.171281" lon="22.223311">
        <ele>142.223161</ele>
        <time>2026-05-07T14:14:23.346Z</time>
      </trkpt>
      <trkpt lat="52.171366" lon="22.223341">
        <ele>142.223161</ele>
        <time>2026-05-07T14:14:31.107Z</time>
      </trkpt>
      <trkpt lat="52.171465" lon="22.222622">
        <ele>142.223161</ele>
        <time>2026-05-07T14:14:36.746Z</time>
      </trkpt>
      <trkpt lat="52.171554" lon="22.222223">
        <ele>142.223161</ele>
        <time>2026-05-07T14:14:39.932Z</time>
      </trkpt>
      <trkpt lat="52.171577" lon="22.221974">
        <ele>142.220109</ele>
        <time>2026-05-07T14:14:41.819Z</time>
      </trkpt>
      <trkpt lat="52.171576" lon="22.221779">
        <ele>142.213400</ele>
        <time>2026-05-07T14:14:43.292Z</time>
      </trkpt>
      <trkpt lat="52.171530" lon="22.221415">
        <ele>142.200615</ele>
        <time>2026-05-07T14:14:46.134Z</time>
      </trkpt>
      <trkpt lat="52.171581" lon="22.221253">
        <ele>142.194351</ele>
        <time>2026-05-07T14:14:47.539Z</time>
      </trkpt>
      <trkpt lat="52.171579" lon="22.221160">
        <ele>142.191149</ele>
        <time>2026-05-07T14:14:48.249Z</time>
      </trkpt>
      <trkpt lat="52.171539" lon="22.221038">
        <ele>142.186390</ele>
        <time>2026-05-07T14:14:49.315Z</time>
      </trkpt>
      <trkpt lat="52.171461" lon="22.220961">
        <ele>142.181276</ele>
        <time>2026-05-07T14:14:50.451Z</time>
      </trkpt>
      <trkpt lat="52.171392" lon="22.220955">
        <ele>142.177400</ele>
        <time>2026-05-07T14:14:51.322Z</time>
      </trkpt>
      <trkpt lat="52.171336" lon="22.220989">
        <ele>142.174048</ele>
        <time>2026-05-07T14:14:52.066Z</time>
      </trkpt>
      <trkpt lat="52.171194" lon="22.220771">
        <ele>142.163108</ele>
        <time>2026-05-07T14:14:55.212Z</time>
      </trkpt>
      <trkpt lat="52.171081" lon="22.220852">
        <ele>142.156184</ele>
        <time>2026-05-07T14:14:56.662Z</time>
      </trkpt>
      <trkpt lat="52.171057" lon="22.221076">
        <ele>142.148361</ele>
        <time>2026-05-07T14:14:58.243Z</time>
      </trkpt>
      <trkpt lat="52.171021" lon="22.221205">
        <ele>142.143485</ele>
        <time>2026-05-07T14:14:59.200Z</time>
      </trkpt>
      <trkpt lat="52.170909" lon="22.221416">
        <ele>142.133885</ele>
        <time>2026-05-07T14:15:01.036Z</time>
      </trkpt>
      <trkpt lat="52.170640" lon="22.221903">
        <ele>142.152505</ele>
        <time>2026-05-07T14:15:05.276Z</time>
      </trkpt>
      <trkpt lat="52.169925" lon="22.222763">
        <ele>142.290347</ele>
        <time>2026-05-07T14:15:15.295Z</time>
      </trkpt>
      <trkpt lat="52.169353" lon="22.223246">
        <ele>142.390281</ele>
        <time>2026-05-07T14:15:24.185Z</time>
      </trkpt>
      <trkpt lat="52.169094" lon="22.223397">
        <ele>142.652840</ele>
        <time>2026-05-07T14:15:28.304Z</time>
      </trkpt>
      <trkpt lat="52.168973" lon="22.223403">
        <ele>142.802126</ele>
        <time>2026-05-07T14:15:30.172Z</time>
      </trkpt>
      <trkpt lat="52.168883" lon="22.223353">
        <ele>142.919381</ele>
        <time>2026-05-07T14:15:31.670Z</time>
      </trkpt>
      <trkpt lat="52.168824" lon="22.223250">
        <ele>143.025979</ele>
        <time>2026-05-07T14:15:33.046Z</time>
      </trkpt>
      <trkpt lat="52.167974" lon="22.220952">
        <ele>145.356036</ele>
        <time>2026-05-07T14:15:59.421Z</time>
      </trkpt>
      <trkpt lat="52.167804" lon="22.220492">
        <ele>146.041810</ele>
        <time>2026-05-07T14:16:05.431Z</time>
      </trkpt>
      <trkpt lat="52.167589" lon="22.219914">
        <ele>146.905002</ele>
        <time>2026-05-07T14:16:13.343Z</time>
      </trkpt>
      <trkpt lat="52.167309" lon="22.219155">
        <ele>148.036001</ele>
        <time>2026-05-07T14:16:24.169Z</time>
      </trkpt>
      <trkpt lat="52.167170" lon="22.218765">
        <ele>148.591932</ele>
        <time>2026-05-07T14:16:29.856Z</time>
      </trkpt>
      <trkpt lat="52.167140" lon="22.218588">
        <ele>148.807462</ele>
        <time>2026-05-07T14:16:32.197Z</time>
      </trkpt>
      <trkpt lat="52.167140" lon="22.218586">
        <ele>148.809810</ele>
        <time>2026-05-07T14:16:32.223Z</time>
      </trkpt>
      <trkpt lat="52.167144" lon="22.216906">
        <ele>150.781636</ele>
        <time>2026-05-07T14:16:51.662Z</time>
      </trkpt>
      <trkpt lat="52.167156" lon="22.214527">
        <ele>152.566938</ele>
        <time>2026-05-07T14:17:13.698Z</time>
      </trkpt>
      <trkpt lat="52.167183" lon="22.212741">
        <ele>153.317356</ele>
        <time>2026-05-07T14:17:28.883Z</time>
      </trkpt>
      <trkpt lat="52.162314" lon="22.213839">
        <ele>153.784083</ele>
        <time>2026-05-07T14:18:28.530Z</time>
      </trkpt>
      <trkpt lat="52.161766" lon="22.213964">
        <ele>153.754747</ele>
        <time>2026-05-07T14:18:34.681Z</time>
      </trkpt>
      <trkpt lat="52.158884" lon="22.214597">
        <ele>153.381742</ele>
        <time>2026-05-07T14:19:08.375Z</time>
      </trkpt>
      <trkpt lat="52.156619" lon="22.215072">
        <ele>152.958150</ele>
        <time>2026-05-07T14:19:33.222Z</time>
      </trkpt>
      <trkpt lat="52.153922" lon="22.215666">
        <ele>155.341570</ele>
        <time>2026-05-07T14:20:14.079Z</time>
      </trkpt>
      <trkpt lat="52.153562" lon="22.215772">
        <ele>155.719522</ele>
        <time>2026-05-07T14:20:19.742Z</time>
      </trkpt>
      <trkpt lat="52.150509" lon="22.217011">
        <ele>159.131789</ele>
        <time>2026-05-07T14:21:07.887Z</time>
      </trkpt>
      <trkpt lat="52.150380" lon="22.216212">
        <ele>159.697000</ele>
        <time>2026-05-07T14:21:24.460Z</time>
      </trkpt>
      <trkpt lat="52.150164" lon="22.214493">
        <ele>161.216230</ele>
        <time>2026-05-07T14:22:00.804Z</time>
      </trkpt>
      <trkpt lat="52.149650" lon="22.211174">
        <ele>164.238015</ele>
        <time>2026-05-07T14:23:14.917Z</time>
      </trkpt>
      <trkpt lat="52.149550" lon="22.210522">
        <ele>164.776575</ele>
        <time>2026-05-07T14:23:28.626Z</time>
      </trkpt>
      <trkpt lat="52.149496" lon="22.210177">
        <ele>165.061897</ele>
        <time>2026-05-07T14:23:35.785Z</time>
      </trkpt>
      <trkpt lat="52.149319" lon="22.208952">
        <ele>165.273792</ele>
        <time>2026-05-07T14:23:59.672Z</time>
      </trkpt>
      <trkpt lat="52.149264" lon="22.208589">
        <ele>165.277918</ele>
        <time>2026-05-07T14:24:06.467Z</time>
      </trkpt>
      <trkpt lat="52.149209" lon="22.208503">
        <ele>165.279288</ele>
        <time>2026-05-07T14:24:08.709Z</time>
      </trkpt>
      <trkpt lat="52.150287" lon="22.206323">
        <ele>165.238509</ele>
        <time>2026-05-07T14:24:34.685Z</time>
      </trkpt>
      <trkpt lat="52.150578" lon="22.205732">
        <ele>165.207360</ele>
        <time>2026-05-07T14:24:42.435Z</time>
      </trkpt>
      <trkpt lat="52.151040" lon="22.204798">
        <ele>165.077156</ele>
        <time>2026-05-07T14:24:55.166Z</time>
      </trkpt>
      <trkpt lat="52.151552" lon="22.203761">
        <ele>164.753780</ele>
        <time>2026-05-07T14:25:07.821Z</time>
      </trkpt>
      <trkpt lat="52.151719" lon="22.203423">
        <ele>164.648349</ele>
        <time>2026-05-07T14:25:11.667Z</time>
      </trkpt>
      <trkpt lat="52.152479" lon="22.201884">
        <ele>163.815216</ele>
        <time>2026-05-07T14:25:28.581Z</time>
      </trkpt>
      <trkpt lat="52.152891" lon="22.200942">
        <ele>163.196481</ele>
        <time>2026-05-07T14:25:38.642Z</time>
      </trkpt>
      <trkpt lat="52.153056" lon="22.200420">
        <ele>162.879751</ele>
        <time>2026-05-07T14:25:42.273Z</time>
      </trkpt>
      <trkpt lat="52.153221" lon="22.199714">
        <ele>162.385919</ele>
        <time>2026-05-07T14:25:46.937Z</time>
      </trkpt>
      <trkpt lat="52.153343" lon="22.198844">
        <ele>161.802569</ele>
        <time>2026-05-07T14:25:52.170Z</time>
      </trkpt>
      <trkpt lat="52.153371" lon="22.198319">
        <ele>161.458104</ele>
        <time>2026-05-07T14:25:55.331Z</time>
      </trkpt>
      <trkpt lat="52.153377" lon="22.197659">
        <ele>161.026641</ele>
        <time>2026-05-07T14:25:59.231Z</time>
      </trkpt>
      <trkpt lat="52.153297" lon="22.196072">
        <ele>159.904446</ele>
        <time>2026-05-07T14:26:08.286Z</time>
      </trkpt>
      <trkpt lat="52.153240" lon="22.195722">
        <ele>159.648341</ele>
        <time>2026-05-07T14:26:10.425Z</time>
      </trkpt>
      <trkpt lat="52.153118" lon="22.195249">
        <ele>159.285460</ele>
        <time>2026-05-07T14:26:13.487Z</time>
      </trkpt>
      <trkpt lat="52.152908" lon="22.194481">
        <ele>158.758643</ele>
        <time>2026-05-07T14:26:18.613Z</time>
      </trkpt>
      <trkpt lat="52.152670" lon="22.193493">
        <ele>158.245818</ele>
        <time>2026-05-07T14:26:25.402Z</time>
      </trkpt>
      <trkpt lat="52.152519" lon="22.192492">
        <ele>157.747780</ele>
        <time>2026-05-07T14:26:31.938Z</time>
      </trkpt>
      <trkpt lat="52.152430" lon="22.191781">
        <ele>157.419476</ele>
        <time>2026-05-07T14:26:36.271Z</time>
      </trkpt>
      <trkpt lat="52.152382" lon="22.191405">
        <ele>157.279193</ele>
        <time>2026-05-07T14:26:38.520Z</time>
      </trkpt>
      <trkpt lat="52.152167" lon="22.189698">
        <ele>156.642671</ele>
        <time>2026-05-07T14:26:49.100Z</time>
      </trkpt>
      <trkpt lat="52.149973" lon="22.189387">
        <ele>157.368931</ele>
        <time>2026-05-07T14:27:28.368Z</time>
      </trkpt>
      <trkpt lat="52.148751" lon="22.189038">
        <ele>157.874381</ele>
        <time>2026-05-07T14:27:51.951Z</time>
      </trkpt>
      <trkpt lat="52.147749" lon="22.188974">
        <ele>157.657598</ele>
        <time>2026-05-07T14:28:06.983Z</time>
      </trkpt>
      <trkpt lat="52.147453" lon="22.188988">
        <ele>157.384773</ele>
        <time>2026-05-07T14:28:10.992Z</time>
      </trkpt>
      <trkpt lat="52.147070" lon="22.189060">
        <ele>157.029569</ele>
        <time>2026-05-07T14:28:16.171Z</time>
      </trkpt>
      <trkpt lat="52.146965" lon="22.189008">
        <ele>156.928462</ele>
        <time>2026-05-07T14:28:17.644Z</time>
      </trkpt>
      <trkpt lat="52.147636" lon="22.187371">
        <ele>156.019323</ele>
        <time>2026-05-07T14:28:34.292Z</time>
      </trkpt>
      <trkpt lat="52.149571" lon="22.183037">
        <ele>154.861744</ele>
        <time>2026-05-07T14:29:24.441Z</time>
      </trkpt>
      <trkpt lat="52.150864" lon="22.180095">
        <ele>155.609781</ele>
        <time>2026-05-07T14:30:03.140Z</time>
      </trkpt>
      <trkpt lat="52.151822" lon="22.177847">
        <ele>156.639450</ele>
        <time>2026-05-07T14:30:34.036Z</time>
      </trkpt>
      <trkpt lat="52.152117" lon="22.176200">
        <ele>157.395708</ele>
        <time>2026-05-07T14:30:52.555Z</time>
      </trkpt>
      <trkpt lat="52.152314" lon="22.174853">
        <ele>158.821049</ele>
        <time>2026-05-07T14:31:10.772Z</time>
      </trkpt>
      <trkpt lat="52.152267" lon="22.174879">
        <ele>158.909288</ele>
        <time>2026-05-07T14:31:14.311Z</time>
      </trkpt>
      <trkpt lat="52.152440" lon="22.173740">
        <ele>160.189210</ele>
        <time>2026-05-07T14:31:28.236Z</time>
      </trkpt>
      <trkpt lat="52.152542" lon="22.173081">
        <ele>160.841249</ele>
        <time>2026-05-07T14:31:35.759Z</time>
      </trkpt>
      <trkpt lat="52.152580" lon="22.172838">
        <ele>161.027372</ele>
        <time>2026-05-07T14:31:38.412Z</time>
      </trkpt>
      <trkpt lat="52.152827" lon="22.171243">
        <ele>162.248322</ele>
        <time>2026-05-07T14:31:53.445Z</time>
      </trkpt>
      <trkpt lat="52.152854" lon="22.171070">
        <ele>162.380812</ele>
        <time>2026-05-07T14:31:54.991Z</time>
      </trkpt>
      <trkpt lat="52.153070" lon="22.169678">
        <ele>163.459788</ele>
        <time>2026-05-07T14:32:08.513Z</time>
      </trkpt>
      <trkpt lat="52.153086" lon="22.169470">
        <ele>163.618713</ele>
        <time>2026-05-07T14:32:10.739Z</time>
      </trkpt>
      <trkpt lat="52.153095" lon="22.168954">
        <ele>164.010066</ele>
        <time>2026-05-07T14:32:16.240Z</time>
      </trkpt>
      <trkpt lat="52.152982" lon="22.167266">
        <ele>165.123558</ele>
        <time>2026-05-07T14:32:32.866Z</time>
      </trkpt>
      <trkpt lat="52.152995" lon="22.165992">
        <ele>165.412622</ele>
        <time>2026-05-07T14:32:43.305Z</time>
      </trkpt>
      <trkpt lat="52.152909" lon="22.165730">
        <ele>165.480032</ele>
        <time>2026-05-07T14:32:45.539Z</time>
      </trkpt>
      <trkpt lat="52.152565" lon="22.165316">
        <ele>165.638146</ele>
        <time>2026-05-07T14:32:50.509Z</time>
      </trkpt>
      <trkpt lat="52.152512" lon="22.165254">
        <ele>165.662268</ele>
        <time>2026-05-07T14:32:51.255Z</time>
      </trkpt>
      <trkpt lat="52.151146" lon="22.162585">
        <ele>165.259096</ele>
        <time>2026-05-07T14:33:14.989Z</time>
      </trkpt>
      <trkpt lat="52.151077" lon="22.162391">
        <ele>165.237378</ele>
        <time>2026-05-07T14:33:16.544Z</time>
      </trkpt>
      <trkpt lat="52.150982" lon="22.161954">
        <ele>165.192475</ele>
        <time>2026-05-07T14:33:19.772Z</time>
      </trkpt>
      <trkpt lat="52.150686" lon="22.159077">
        <ele>165.079681</ele>
        <time>2026-05-07T14:33:40.289Z</time>
      </trkpt>
      <trkpt lat="52.150599" lon="22.158645">
        <ele>165.113750</ele>
        <time>2026-05-07T14:33:43.622Z</time>
      </trkpt>
      <trkpt lat="52.150302" lon="22.157753">
        <ele>165.189793</ele>
        <time>2026-05-07T14:33:51.455Z</time>
      </trkpt>
      <trkpt lat="52.149810" lon="22.156347">
        <ele>165.397667</ele>
        <time>2026-05-07T14:34:04.595Z</time>
      </trkpt>
      <trkpt lat="52.149703" lon="22.155962">
        <ele>165.461304</ele>
        <time>2026-05-07T14:34:07.982Z</time>
      </trkpt>
      <trkpt lat="52.149660" lon="22.155695">
        <ele>165.502867</ele>
        <time>2026-05-07T14:34:10.124Z</time>
      </trkpt>
      <trkpt lat="52.149644" lon="22.155351">
        <ele>165.554811</ele>
        <time>2026-05-07T14:34:12.724Z</time>
      </trkpt>
      <trkpt lat="52.149690" lon="22.154439">
        <ele>165.607491</ele>
        <time>2026-05-07T14:34:19.738Z</time>
      </trkpt>
      <trkpt lat="52.149746" lon="22.153626">
        <ele>165.326697</ele>
        <time>2026-05-07T14:34:25.299Z</time>
      </trkpt>
      <trkpt lat="52.149840" lon="22.152788">
        <ele>165.034309</ele>
        <time>2026-05-07T14:34:30.666Z</time>
      </trkpt>
      <trkpt lat="52.150039" lon="22.151544">
        <ele>164.592690</ele>
        <time>2026-05-07T14:34:38.566Z</time>
      </trkpt>
      <trkpt lat="52.150156" lon="22.151018">
        <ele>164.399586</ele>
        <time>2026-05-07T14:34:41.885Z</time>
      </trkpt>
      <trkpt lat="52.150205" lon="22.150776">
        <ele>164.311633</ele>
        <time>2026-05-07T14:34:43.367Z</time>
      </trkpt>
      <trkpt lat="52.150368" lon="22.149975">
        <ele>164.020370</ele>
        <time>2026-05-07T14:34:48.567Z</time>
      </trkpt>
      <trkpt lat="52.150469" lon="22.149016">
        <ele>163.684543</ele>
        <time>2026-05-07T14:34:55.303Z</time>
      </trkpt>
      <trkpt lat="52.150483" lon="22.148623">
        <ele>163.674445</ele>
        <time>2026-05-07T14:34:58.370Z</time>
      </trkpt>
      <trkpt lat="52.150456" lon="22.146656">
        <ele>163.848079</ele>
        <time>2026-05-07T14:35:14.284Z</time>
      </trkpt>
      <trkpt lat="52.150517" lon="22.146147">
        <ele>163.893848</ele>
        <time>2026-05-07T14:35:18.279Z</time>
      </trkpt>
      <trkpt lat="52.152116" lon="22.133953">
        <ele>159.700588</ele>
        <time>2026-05-07T14:36:37.857Z</time>
      </trkpt>
      <trkpt lat="52.152428" lon="22.131768">
        <ele>159.475208</ele>
        <time>2026-05-07T14:36:53.971Z</time>
      </trkpt>
      <trkpt lat="52.152544" lon="22.131110">
        <ele>159.545878</ele>
        <time>2026-05-07T14:36:59.154Z</time>
      </trkpt>
      <trkpt lat="52.152613" lon="22.130874">
        <ele>159.581901</ele>
        <time>2026-05-07T14:37:01.141Z</time>
      </trkpt>
      <trkpt lat="52.153360" lon="22.129157">
        <ele>159.873144</ele>
        <time>2026-05-07T14:37:17.495Z</time>
      </trkpt>
      <trkpt lat="52.153624" lon="22.128634">
        <ele>160.007295</ele>
        <time>2026-05-07T14:37:23.058Z</time>
      </trkpt>
      <trkpt lat="52.153793" lon="22.128440">
        <ele>160.074030</ele>
        <time>2026-05-07T14:37:25.877Z</time>
      </trkpt>
      <trkpt lat="52.155190" lon="22.127422">
        <ele>160.114419</ele>
        <time>2026-05-07T14:37:45.729Z</time>
      </trkpt>
      <trkpt lat="52.155186" lon="22.122501">
        <ele>156.638074</ele>
        <time>2026-05-07T14:38:14.133Z</time>
      </trkpt>
      <trkpt lat="52.154944" lon="22.119866">
        <ele>154.905020</ele>
        <time>2026-05-07T14:38:29.112Z</time>
      </trkpt>
      <trkpt lat="52.153728" lon="22.114526">
        <ele>155.469414</ele>
        <time>2026-05-07T14:39:15.800Z</time>
      </trkpt>
      <trkpt lat="52.153558" lon="22.113708">
        <ele>155.578012</ele>
        <time>2026-05-07T14:39:21.119Z</time>
      </trkpt>
      <trkpt lat="52.153210" lon="22.110389">
        <ele>156.241177</ele>
        <time>2026-05-07T14:39:46.904Z</time>
      </trkpt>
      <trkpt lat="52.153128" lon="22.109533">
        <ele>156.817105</ele>
        <time>2026-05-07T14:39:56.373Z</time>
      </trkpt>
      <trkpt lat="52.152581" lon="22.103617">
        <ele>160.041979</ele>
        <time>2026-05-07T14:40:52.661Z</time>
      </trkpt>
      <trkpt lat="52.152289" lon="22.100946">
        <ele>160.291364</ele>
        <time>2026-05-07T14:41:10.046Z</time>
      </trkpt>
      <trkpt lat="52.152227" lon="22.100080">
        <ele>160.300863</ele>
        <time>2026-05-07T14:41:16.875Z</time>
      </trkpt>
      <trkpt lat="52.152058" lon="22.092531">
        <ele>162.682623</ele>
        <time>2026-05-07T14:42:21.195Z</time>
      </trkpt>
      <trkpt lat="52.151825" lon="22.082804">
        <ele>163.994992</ele>
        <time>2026-05-07T14:43:36.219Z</time>
      </trkpt>
      <trkpt lat="52.151916" lon="22.082811">
        <ele>163.998443</ele>
        <time>2026-05-07T14:43:38.940Z</time>
      </trkpt>
      <trkpt lat="52.151825" lon="22.082804">
        <ele>164.001893</ele>
        <time>2026-05-07T14:43:41.583Z</time>
      </trkpt>
      <trkpt lat="52.151866" lon="22.081741">
        <ele>163.968286</ele>
        <time>2026-05-07T14:43:48.854Z</time>
      </trkpt>
      <trkpt lat="52.151943" lon="22.080986">
        <ele>163.831613</ele>
        <time>2026-05-07T14:43:53.807Z</time>
      </trkpt>
      <trkpt lat="52.152467" lon="22.078651">
        <ele>163.469247</ele>
        <time>2026-05-07T14:44:10.637Z</time>
      </trkpt>
      <trkpt lat="52.152685" lon="22.077418">
        <ele>163.411972</ele>
        <time>2026-05-07T14:44:21.589Z</time>
      </trkpt>
      <trkpt lat="52.152796" lon="22.076368">
        <ele>163.344392</ele>
        <time>2026-05-07T14:44:29.136Z</time>
      </trkpt>
      <trkpt lat="52.154139" lon="22.076329">
        <ele>161.594207</ele>
        <time>2026-05-07T14:44:41.280Z</time>
      </trkpt>
      <trkpt lat="52.157000" lon="22.076362">
        <ele>158.300125</ele>
        <time>2026-05-07T14:45:08.704Z</time>
      </trkpt>
      <trkpt lat="52.157339" lon="22.076314">
        <ele>157.959163</ele>
        <time>2026-05-07T14:45:12.077Z</time>
      </trkpt>
      <trkpt lat="52.157679" lon="22.076178">
        <ele>157.608369</ele>
        <time>2026-05-07T14:45:15.556Z</time>
      </trkpt>
      <trkpt lat="52.160225" lon="22.074646">
        <ele>155.468533</ele>
        <time>2026-05-07T14:45:42.808Z</time>
      </trkpt>
      <trkpt lat="52.161449" lon="22.073838">
        <ele>154.862611</ele>
        <time>2026-05-07T14:45:56.736Z</time>
      </trkpt>
      <trkpt lat="52.162108" lon="22.073207">
        <ele>155.011798</ele>
        <time>2026-05-07T14:46:07.144Z</time>
      </trkpt>
      <trkpt lat="52.162304" lon="22.073019">
        <ele>155.066115</ele>
        <time>2026-05-07T14:46:10.315Z</time>
      </trkpt>
      <trkpt lat="52.162570" lon="22.072769">
        <ele>155.139450</ele>
        <time>2026-05-07T14:46:14.601Z</time>
      </trkpt>
      <trkpt lat="52.164458" lon="22.071020">
        <ele>154.941190</ele>
        <time>2026-05-07T14:46:39.263Z</time>
      </trkpt>
      <trkpt lat="52.165358" lon="22.070110">
        <ele>154.786850</ele>
        <time>2026-05-07T14:46:50.699Z</time>
      </trkpt>
      <trkpt lat="52.169384" lon="22.066576">
        <ele>154.142860</ele>
        <time>2026-05-07T14:47:43.917Z</time>
      </trkpt>
      <trkpt lat="52.169515" lon="22.066461">
        <ele>154.023392</ele>
        <time>2026-05-07T14:47:45.621Z</time>
      </trkpt>
      <trkpt lat="52.170078" lon="22.065962">
        <ele>153.508838</ele>
        <time>2026-05-07T14:47:52.235Z</time>
      </trkpt>
      <trkpt lat="52.170392" lon="22.065687">
        <ele>153.222632</ele>
        <time>2026-05-07T14:47:55.804Z</time>
      </trkpt>
      <trkpt lat="52.170670" lon="22.065442">
        <ele>152.968883</ele>
        <time>2026-05-07T14:47:58.874Z</time>
      </trkpt>
      <trkpt lat="52.172116" lon="22.063871">
        <ele>150.746129</ele>
        <time>2026-05-07T14:48:15.014Z</time>
      </trkpt>
      <trkpt lat="52.172353" lon="22.063605">
        <ele>150.352213</ele>
        <time>2026-05-07T14:48:17.679Z</time>
      </trkpt>
      <trkpt lat="52.172886" lon="22.062996">
        <ele>149.955326</ele>
        <time>2026-05-07T14:48:23.898Z</time>
      </trkpt>
      <trkpt lat="52.173056" lon="22.062803">
        <ele>149.841876</ele>
        <time>2026-05-07T14:48:25.935Z</time>
      </trkpt>
      <trkpt lat="52.174126" lon="22.061340">
        <ele>149.059062</ele>
        <time>2026-05-07T14:48:42.516Z</time>
      </trkpt>
      <trkpt lat="52.174476" lon="22.060863">
        <ele>148.788991</ele>
        <time>2026-05-07T14:48:47.697Z</time>
      </trkpt>
      <trkpt lat="52.174581" lon="22.060720">
        <ele>148.707994</ele>
        <time>2026-05-07T14:48:49.159Z</time>
      </trkpt>
      <trkpt lat="52.174626" lon="22.060641">
        <ele>148.668845</ele>
        <time>2026-05-07T14:48:49.859Z</time>
      </trkpt>
      <trkpt lat="52.174639" lon="22.060450">
        <ele>148.599069</ele>
        <time>2026-05-07T14:48:51.077Z</time>
      </trkpt>
      <trkpt lat="52.173247" lon="22.053607">
        <ele>143.413873</ele>
        <time>2026-05-07T14:49:32.313Z</time>
      </trkpt>
      <trkpt lat="52.173146" lon="22.053211">
        <ele>143.361017</ele>
        <time>2026-05-07T14:49:35.349Z</time>
      </trkpt>
      <trkpt lat="52.173007" lon="22.052762">
        <ele>143.299030</ele>
        <time>2026-05-07T14:49:38.883Z</time>
      </trkpt>
      <trkpt lat="52.172997" lon="22.052464">
        <ele>143.262248</ele>
        <time>2026-05-07T14:49:40.919Z</time>
      </trkpt>
      <trkpt lat="52.173595" lon="22.052293">
        <ele>143.140241</ele>
        <time>2026-05-07T14:49:48.285Z</time>
      </trkpt>
      <trkpt lat="52.174215" lon="22.052311">
        <ele>143.301113</ele>
        <time>2026-05-07T14:49:56.557Z</time>
      </trkpt>
      <trkpt lat="52.175569" lon="22.052411">
        <ele>144.015839</ele>
        <time>2026-05-07T14:50:16.312Z</time>
      </trkpt>
      <trkpt lat="52.175664" lon="22.052407">
        <ele>144.003486</ele>
        <time>2026-05-07T14:50:17.504Z</time>
      </trkpt>
      <trkpt lat="52.176172" lon="22.052135">
        <ele>143.522505</ele>
        <time>2026-05-07T14:50:23.152Z</time>
      </trkpt>
      <trkpt lat="52.176728" lon="22.051729">
        <ele>142.974492</ele>
        <time>2026-05-07T14:50:28.735Z</time>
      </trkpt>
      <trkpt lat="52.177208" lon="22.050941">
        <ele>142.394559</ele>
        <time>2026-05-07T14:50:34.959Z</time>
      </trkpt>
      <trkpt lat="52.178435" lon="22.048730">
        <ele>141.655926</ele>
        <time>2026-05-07T14:50:55.175Z</time>
      </trkpt>
      <trkpt lat="52.178531" lon="22.048560">
        <ele>141.668195</ele>
        <time>2026-05-07T14:50:56.890Z</time>
      </trkpt>
      <trkpt lat="52.180089" lon="22.045794">
        <ele>141.930442</ele>
        <time>2026-05-07T14:51:25.252Z</time>
      </trkpt>
      <trkpt lat="52.180524" lon="22.043855">
        <ele>142.202006</ele>
        <time>2026-05-07T14:51:41.014Z</time>
      </trkpt>
      <trkpt lat="52.181637" lon="22.038546">
        <ele>143.730589</ele>
        <time>2026-05-07T14:52:27.353Z</time>
      </trkpt>
      <trkpt lat="52.182415" lon="22.034108">
        <ele>144.277099</ele>
        <time>2026-05-07T14:53:02.755Z</time>
      </trkpt>
      <trkpt lat="52.183923" lon="22.030151">
        <ele>144.148973</ele>
        <time>2026-05-07T14:53:36.013Z</time>
      </trkpt>
      <trkpt lat="52.184234" lon="22.029261">
        <ele>144.050769</ele>
        <time>2026-05-07T14:53:42.888Z</time>
      </trkpt>
      <trkpt lat="52.184464" lon="22.025852">
        <ele>143.754881</ele>
        <time>2026-05-07T14:54:07.209Z</time>
      </trkpt>
      <trkpt lat="52.184969" lon="22.015731">
        <ele>142.710372</ele>
        <time>2026-05-07T14:55:17.254Z</time>
      </trkpt>
      <trkpt lat="52.184963" lon="22.014658">
        <ele>142.882663</ele>
        <time>2026-05-07T14:55:25.964Z</time>
      </trkpt>
      <trkpt lat="52.184730" lon="22.010617">
        <ele>143.782767</ele>
        <time>2026-05-07T14:55:58.583Z</time>
      </trkpt>
      <trkpt lat="52.184658" lon="22.010182">
        <ele>143.893900</ele>
        <time>2026-05-07T14:56:02.453Z</time>
      </trkpt>
      <trkpt lat="52.184523" lon="22.009745">
        <ele>144.011723</ele>
        <time>2026-05-07T14:56:06.736Z</time>
      </trkpt>
      <trkpt lat="52.183729" lon="22.007499">
        <ele>144.290975</ele>
        <time>2026-05-07T14:56:28.102Z</time>
      </trkpt>
      <trkpt lat="52.182771" lon="22.005181">
        <ele>142.233543</ele>
        <time>2026-05-07T14:56:44.078Z</time>
      </trkpt>
      <trkpt lat="52.181919" lon="22.003455">
        <ele>139.464351</ele>
        <time>2026-05-07T14:56:55.537Z</time>
      </trkpt>
      <trkpt lat="52.181230" lon="22.001372">
        <ele>137.828416</ele>
        <time>2026-05-07T14:57:09.267Z</time>
      </trkpt>
      <trkpt lat="52.180274" lon="21.998677">
        <ele>137.475618</ele>
        <time>2026-05-07T14:57:31.364Z</time>
      </trkpt>
      <trkpt lat="52.179854" lon="21.997197">
        <ele>137.985244</ele>
        <time>2026-05-07T14:57:45.788Z</time>
      </trkpt>
      <trkpt lat="52.179777" lon="21.996535">
        <ele>138.353855</ele>
        <time>2026-05-07T14:57:52.041Z</time>
      </trkpt>
      <trkpt lat="52.179796" lon="21.995728">
        <ele>138.795656</ele>
        <time>2026-05-07T14:57:59.379Z</time>
      </trkpt>
      <trkpt lat="52.179934" lon="21.994306">
        <ele>139.564081</ele>
        <time>2026-05-07T14:58:12.358Z</time>
      </trkpt>
      <trkpt lat="52.180222" lon="21.992011">
        <ele>140.757113</ele>
        <time>2026-05-07T14:58:33.372Z</time>
      </trkpt>
      <trkpt lat="52.180231" lon="21.991523">
        <ele>140.923228</ele>
        <time>2026-05-07T14:58:37.724Z</time>
      </trkpt>
      <trkpt lat="52.180204" lon="21.990999">
        <ele>141.102146</ele>
        <time>2026-05-07T14:58:42.349Z</time>
      </trkpt>
      <trkpt lat="52.180018" lon="21.989192">
        <ele>141.695003</ele>
        <time>2026-05-07T14:58:57.327Z</time>
      </trkpt>
      <trkpt lat="52.180006" lon="21.988671">
        <ele>141.643883</ele>
        <time>2026-05-07T14:59:01.268Z</time>
      </trkpt>
      <trkpt lat="52.180042" lon="21.984332">
        <ele>140.865190</ele>
        <time>2026-05-07T14:59:30.419Z</time>
      </trkpt>
      <trkpt lat="52.180479" lon="21.978009">
        <ele>138.557913</ele>
        <time>2026-05-07T15:00:10.543Z</time>
      </trkpt>
      <trkpt lat="52.180539" lon="21.975252">
        <ele>137.942924</ele>
        <time>2026-05-07T15:00:29.832Z</time>
      </trkpt>
      <trkpt lat="52.180489" lon="21.974934">
        <ele>137.877356</ele>
        <time>2026-05-07T15:00:31.975Z</time>
      </trkpt>
      <trkpt lat="52.180126" lon="21.973906">
        <ele>137.454078</ele>
        <time>2026-05-07T15:00:39.429Z</time>
      </trkpt>
      <trkpt lat="52.180104" lon="21.973003">
        <ele>137.086532</ele>
        <time>2026-05-07T15:00:45.000Z</time>
      </trkpt>
      <trkpt lat="52.180047" lon="21.970606">
        <ele>136.180814</ele>
        <time>2026-05-07T15:01:00.314Z</time>
      </trkpt>
      <trkpt lat="52.179951" lon="21.968589">
        <ele>135.595470</ele>
        <time>2026-05-07T15:01:13.180Z</time>
      </trkpt>
      <trkpt lat="52.179881" lon="21.968197">
        <ele>135.595154</ele>
        <time>2026-05-07T15:01:15.957Z</time>
      </trkpt>
      <trkpt lat="52.179732" lon="21.967808">
        <ele>135.594799</ele>
        <time>2026-05-07T15:01:19.242Z</time>
      </trkpt>
      <trkpt lat="52.178915" lon="21.966065">
        <ele>135.610660</ele>
        <time>2026-05-07T15:01:36.365Z</time>
      </trkpt>
      <trkpt lat="52.178454" lon="21.964938">
        <ele>135.658464</ele>
        <time>2026-05-07T15:01:46.541Z</time>
      </trkpt>
      <trkpt lat="52.178277" lon="21.964404">
        <ele>135.679884</ele>
        <time>2026-05-07T15:01:50.756Z</time>
      </trkpt>
      <trkpt lat="52.178205" lon="21.964090">
        <ele>135.691713</ele>
        <time>2026-05-07T15:01:53.051Z</time>
      </trkpt>
      <trkpt lat="52.178193" lon="21.963790">
        <ele>135.711022</ele>
        <time>2026-05-07T15:01:55.200Z</time>
      </trkpt>
      <trkpt lat="52.178246" lon="21.963300">
        <ele>135.757187</ele>
        <time>2026-05-07T15:01:58.868Z</time>
      </trkpt>
      <trkpt lat="52.178442" lon="21.962588">
        <ele>135.829599</ele>
        <time>2026-05-07T15:02:04.829Z</time>
      </trkpt>
      <trkpt lat="52.178557" lon="21.962222">
        <ele>135.867756</ele>
        <time>2026-05-07T15:02:08.033Z</time>
      </trkpt>
      <trkpt lat="52.178982" lon="21.960775">
        <ele>136.133470</ele>
        <time>2026-05-07T15:02:20.440Z</time>
      </trkpt>
      <trkpt lat="52.179032" lon="21.960426">
        <ele>136.248546</ele>
        <time>2026-05-07T15:02:23.395Z</time>
      </trkpt>
      <trkpt lat="52.179071" lon="21.959795">
        <ele>136.452176</ele>
        <time>2026-05-07T15:02:28.874Z</time>
      </trkpt>
      <trkpt lat="52.179146" lon="21.959266">
        <ele>136.626509</ele>
        <time>2026-05-07T15:02:33.565Z</time>
      </trkpt>
      <trkpt lat="52.179269" lon="21.959003">
        <ele>136.732712</ele>
        <time>2026-05-07T15:02:36.390Z</time>
      </trkpt>
      <trkpt lat="52.179611" lon="21.958608">
        <ele>136.915083</ele>
        <time>2026-05-07T15:02:42.172Z</time>
      </trkpt>
      <trkpt lat="52.178789" lon="21.957547">
        <ele>136.970302</ele>
        <time>2026-05-07T15:02:55.472Z</time>
      </trkpt>
      <trkpt lat="52.178678" lon="21.957326">
        <ele>136.979529</ele>
        <time>2026-05-07T15:02:57.341Z</time>
      </trkpt>
      <trkpt lat="52.178681" lon="21.957130">
        <ele>136.985862</ele>
        <time>2026-05-07T15:02:58.601Z</time>
      </trkpt>
      <trkpt lat="52.178786" lon="21.956248">
        <ele>136.990413</ele>
        <time>2026-05-07T15:03:04.494Z</time>
      </trkpt>
      <trkpt lat="52.178826" lon="21.955087">
        <ele>136.928112</ele>
        <time>2026-05-07T15:03:12.489Z</time>
      </trkpt>
      <trkpt lat="52.178807" lon="21.954346">
        <ele>136.888376</ele>
        <time>2026-05-07T15:03:17.765Z</time>
      </trkpt>
      <trkpt lat="52.178247" lon="21.953472">
        <ele>136.932343</ele>
        <time>2026-05-07T15:03:27.699Z</time>
      </trkpt>
      <trkpt lat="52.177405" lon="21.952886">
        <ele>137.172855</ele>
        <time>2026-05-07T15:03:39.845Z</time>
      </trkpt>
      <trkpt lat="52.177191" lon="21.952804">
        <ele>137.230607</ele>
        <time>2026-05-07T15:03:42.599Z</time>
      </trkpt>
      <trkpt lat="52.177069" lon="21.952790">
        <ele>137.262738</ele>
        <time>2026-05-07T15:03:44.618Z</time>
      </trkpt>
      <trkpt lat="52.176977" lon="21.952783">
        <ele>137.286935</ele>
        <time>2026-05-07T15:03:46.169Z</time>
      </trkpt>
      <trkpt lat="52.176852" lon="21.952773">
        <ele>137.319814</ele>
        <time>2026-05-07T15:03:48.213Z</time>
      </trkpt>
      <trkpt lat="52.176760" lon="21.952727">
        <ele>137.315540</ele>
        <time>2026-05-07T15:03:49.298Z</time>
      </trkpt>
      <trkpt lat="52.176732" lon="21.952628">
        <ele>137.311503</ele>
        <time>2026-05-07T15:03:50.099Z</time>
      </trkpt>
      <trkpt lat="52.176716" lon="21.952427">
        <ele>137.304000</ele>
        <time>2026-05-07T15:03:51.501Z</time>
      </trkpt>
      <trkpt lat="52.176784" lon="21.950730">
        <ele>137.241041</ele>
        <time>2026-05-07T15:04:02.928Z</time>
      </trkpt>
      <trkpt lat="52.176673" lon="21.948083">
        <ele>137.967259</ele>
        <time>2026-05-07T15:04:23.986Z</time>
      </trkpt>
      <trkpt lat="52.176419" lon="21.945398">
        <ele>139.060651</ele>
        <time>2026-05-07T15:04:50.182Z</time>
      </trkpt>
      <trkpt lat="52.176216" lon="21.943794">
        <ele>139.568731</ele>
        <time>2026-05-07T15:05:02.173Z</time>
      </trkpt>
      <trkpt lat="52.175912" lon="21.942091">
        <ele>139.553359</ele>
        <time>2026-05-07T15:05:14.316Z</time>
      </trkpt>
      <trkpt lat="52.175572" lon="21.940426">
        <ele>139.519815</ele>
        <time>2026-05-07T15:05:28.089Z</time>
      </trkpt>
      <trkpt lat="52.175571" lon="21.940363">
        <ele>139.518072</ele>
        <time>2026-05-07T15:05:28.609Z</time>
      </trkpt>
      <trkpt lat="52.175573" lon="21.940316">
        <ele>139.516769</ele>
        <time>2026-05-07T15:05:28.999Z</time>
      </trkpt>
      <trkpt lat="52.174626" lon="21.935824">
        <ele>139.080843</ele>
        <time>2026-05-07T15:06:01.827Z</time>
      </trkpt>
      <trkpt lat="52.174420" lon="21.934745">
        <ele>138.967208</ele>
        <time>2026-05-07T15:06:09.498Z</time>
      </trkpt>
      <trkpt lat="52.174367" lon="21.934162">
        <ele>138.908647</ele>
        <time>2026-05-07T15:06:13.564Z</time>
      </trkpt>
      <trkpt lat="52.172924" lon="21.927232">
        <ele>138.820637</ele>
        <time>2026-05-07T15:07:06.464Z</time>
      </trkpt>
      <trkpt lat="52.172188" lon="21.923592">
        <ele>139.527951</ele>
        <time>2026-05-07T15:07:37.451Z</time>
      </trkpt>
      <trkpt lat="52.171744" lon="21.921622">
        <ele>139.759856</ele>
        <time>2026-05-07T15:07:52.796Z</time>
      </trkpt>
      <trkpt lat="52.168576" lon="21.906550">
        <ele>141.419916</ele>
        <time>2026-05-07T15:09:54.604Z</time>
      </trkpt>
      <trkpt lat="52.168499" lon="21.906195">
        <ele>141.420627</ele>
        <time>2026-05-07T15:09:57.363Z</time>
      </trkpt>
      <trkpt lat="52.168070" lon="21.903921">
        <ele>141.235800</ele>
        <time>2026-05-07T15:10:13.706Z</time>
      </trkpt>
      <trkpt lat="52.166238" lon="21.895390">
        <ele>140.417880</ele>
        <time>2026-05-07T15:11:16.030Z</time>
      </trkpt>
      <trkpt lat="52.165596" lon="21.892151">
        <ele>141.466885</ele>
        <time>2026-05-07T15:11:45.354Z</time>
      </trkpt>
      <trkpt lat="52.165339" lon="21.890948">
        <ele>142.079747</ele>
        <time>2026-05-07T15:11:56.236Z</time>
      </trkpt>
      <trkpt lat="52.165217" lon="21.890625">
        <ele>142.307681</ele>
        <time>2026-05-07T15:11:59.490Z</time>
      </trkpt>
      <trkpt lat="52.164765" lon="21.890723">
        <ele>142.754373</ele>
        <time>2026-05-07T15:12:06.276Z</time>
      </trkpt>
      <trkpt lat="52.165217" lon="21.890625">
        <ele>143.201064</ele>
        <time>2026-05-07T15:12:13.278Z</time>
      </trkpt>
      <trkpt lat="52.165535" lon="21.890513">
        <ele>143.519773</ele>
        <time>2026-05-07T15:12:18.361Z</time>
      </trkpt>
      <trkpt lat="52.165868" lon="21.890488">
        <ele>143.893042</ele>
        <time>2026-05-07T15:12:23.813Z</time>
      </trkpt>
      <trkpt lat="52.166059" lon="21.890435">
        <ele>144.118002</ele>
        <time>2026-05-07T15:12:27.145Z</time>
      </trkpt>
      <trkpt lat="52.166212" lon="21.890337">
        <ele>144.308869</ele>
        <time>2026-05-07T15:12:29.982Z</time>
      </trkpt>
      <trkpt lat="52.166400" lon="21.890149">
        <ele>144.564948</ele>
        <time>2026-05-07T15:12:33.807Z</time>
      </trkpt>
      <trkpt lat="52.166599" lon="21.889871">
        <ele>144.869230</ele>
        <time>2026-05-07T15:12:38.050Z</time>
      </trkpt>
      <trkpt lat="52.166885" lon="21.889472">
        <ele>145.306290</ele>
        <time>2026-05-07T15:12:43.815Z</time>
      </trkpt>
      <trkpt lat="52.166809" lon="21.889318">
        <ele>145.447058</ele>
        <time>2026-05-07T15:12:45.598Z</time>
      </trkpt>
      <trkpt lat="52.166797" lon="21.889023">
        <ele>145.657612</ele>
        <time>2026-05-07T15:12:48.225Z</time>
      </trkpt>
      <trkpt lat="52.166591" lon="21.879714">
        <ele>146.006286</ele>
        <time>2026-05-07T15:13:56.270Z</time>
      </trkpt>
      <trkpt lat="52.166493" lon="21.875241">
        <ele>146.489485</ele>
        <time>2026-05-07T15:14:29.256Z</time>
      </trkpt>
      <trkpt lat="52.166419" lon="21.872127">
        <ele>148.231894</ele>
        <time>2026-05-07T15:14:58.036Z</time>
      </trkpt>
      <trkpt lat="52.166339" lon="21.871719">
        <ele>148.531906</ele>
        <time>2026-05-07T15:15:02.717Z</time>
      </trkpt>
      <trkpt lat="52.166151" lon="21.871281">
        <ele>148.839642</ele>
        <time>2026-05-07T15:15:08.295Z</time>
      </trkpt>
      <trkpt lat="52.165785" lon="21.870524">
        <ele>149.247597</ele>
        <time>2026-05-07T15:15:17.863Z</time>
      </trkpt>
      <trkpt lat="52.164619" lon="21.868509">
        <ele>149.913764</ele>
        <time>2026-05-07T15:15:39.009Z</time>
      </trkpt>
      <trkpt lat="52.163345" lon="21.866196">
        <ele>149.577198</ele>
        <time>2026-05-07T15:16:00.050Z</time>
      </trkpt>
      <trkpt lat="52.161856" lon="21.863491">
        <ele>149.135909</ele>
        <time>2026-05-07T15:16:24.553Z</time>
      </trkpt>
      <trkpt lat="52.161080" lon="21.862181">
        <ele>149.536151</ele>
        <time>2026-05-07T15:16:38.693Z</time>
      </trkpt>
      <trkpt lat="52.161026" lon="21.862115">
        <ele>149.600109</ele>
        <time>2026-05-07T15:16:39.916Z</time>
      </trkpt>
      <trkpt lat="52.160937" lon="21.862085">
        <ele>149.686232</ele>
        <time>2026-05-07T15:16:41.182Z</time>
      </trkpt>
      <trkpt lat="52.160912" lon="21.861810">
        <ele>149.847841</ele>
        <time>2026-05-07T15:16:43.435Z</time>
      </trkpt>
      <trkpt lat="52.160657" lon="21.860539">
        <ele>150.625211</ele>
        <time>2026-05-07T15:16:56.349Z</time>
      </trkpt>
      <trkpt lat="52.160595" lon="21.860229">
        <ele>150.846976</ele>
        <time>2026-05-07T15:16:59.969Z</time>
      </trkpt>
      <trkpt lat="52.159879" lon="21.856723">
        <ele>153.141124</ele>
        <time>2026-05-07T15:17:39.393Z</time>
      </trkpt>
      <trkpt lat="52.159853" lon="21.856433">
        <ele>152.947949</ele>
        <time>2026-05-07T15:17:41.188Z</time>
      </trkpt>
      <trkpt lat="52.159876" lon="21.856183">
        <ele>152.781326</ele>
        <time>2026-05-07T15:17:42.646Z</time>
      </trkpt>
      <trkpt lat="52.159767" lon="21.856137">
        <ele>152.660352</ele>
        <time>2026-05-07T15:17:43.668Z</time>
      </trkpt>
      <trkpt lat="52.159514" lon="21.856043">
        <ele>152.381550</ele>
        <time>2026-05-07T15:17:45.903Z</time>
      </trkpt>
      <trkpt lat="52.159296" lon="21.855891">
        <ele>152.126797</ele>
        <time>2026-05-07T15:17:47.859Z</time>
      </trkpt>
      <trkpt lat="52.157942" lon="21.854661">
        <ele>148.877275</ele>
        <time>2026-05-07T15:18:00.423Z</time>
      </trkpt>
      <trkpt lat="52.157699" lon="21.854476">
        <ele>148.238327</ele>
        <time>2026-05-07T15:18:02.935Z</time>
      </trkpt>
      <trkpt lat="52.157541" lon="21.854419">
        <ele>147.852804</ele>
        <time>2026-05-07T15:18:04.517Z</time>
      </trkpt>
      <trkpt lat="52.156891" lon="21.854473">
        <ele>147.687159</ele>
        <time>2026-05-07T15:18:11.307Z</time>
      </trkpt>
      <trkpt lat="52.156637" lon="21.854531">
        <ele>147.796107</ele>
        <time>2026-05-07T15:18:14.464Z</time>
      </trkpt>
      <trkpt lat="52.156521" lon="21.854582">
        <ele>147.847142</ele>
        <time>2026-05-07T15:18:16.143Z</time>
      </trkpt>
      <trkpt lat="52.155833" lon="21.855012">
        <ele>148.160139</ele>
        <time>2026-05-07T15:18:27.172Z</time>
      </trkpt>
      <trkpt lat="52.155609" lon="21.855114">
        <ele>148.330765</ele>
        <time>2026-05-07T15:18:30.955Z</time>
      </trkpt>
      <trkpt lat="52.155358" lon="21.855131">
        <ele>148.880262</ele>
        <time>2026-05-07T15:18:35.196Z</time>
      </trkpt>
      <trkpt lat="52.155172" lon="21.855030">
        <ele>149.309092</ele>
        <time>2026-05-07T15:18:38.726Z</time>
      </trkpt>
      <trkpt lat="52.154978" lon="21.854845">
        <ele>149.800727</ele>
        <time>2026-05-07T15:18:42.981Z</time>
      </trkpt>
      <trkpt lat="52.154776" lon="21.854576">
        <ele>150.371293</ele>
        <time>2026-05-07T15:18:48.308Z</time>
      </trkpt>
      <trkpt lat="52.153730" lon="21.852737">
        <ele>153.283602</ele>
        <time>2026-05-07T15:19:18.962Z</time>
      </trkpt>
      <trkpt lat="52.152639" lon="21.850890">
        <ele>154.934483</ele>
        <time>2026-05-07T15:19:42.329Z</time>
      </trkpt>
      <trkpt lat="52.152581" lon="21.850711">
        <ele>154.925921</ele>
        <time>2026-05-07T15:19:43.697Z</time>
      </trkpt>
      <trkpt lat="52.152592" lon="21.850451">
        <ele>154.914898</ele>
        <time>2026-05-07T15:19:45.473Z</time>
      </trkpt>
      <trkpt lat="52.152842" lon="21.849591">
        <ele>154.874648</ele>
        <time>2026-05-07T15:19:51.591Z</time>
      </trkpt>
      <trkpt lat="52.153003" lon="21.849041">
        <ele>154.848874</ele>
        <time>2026-05-07T15:19:55.336Z</time>
      </trkpt>
      <trkpt lat="52.154167" lon="21.845042">
        <ele>154.893575</ele>
        <time>2026-05-07T15:20:26.652Z</time>
      </trkpt>
      <trkpt lat="52.155101" lon="21.841937">
        <ele>156.731174</ele>
        <time>2026-05-07T15:20:58.372Z</time>
      </trkpt>
      <trkpt lat="52.155650" lon="21.839997">
        <ele>158.842188</ele>
        <time>2026-05-07T15:21:20.335Z</time>
      </trkpt>
      <trkpt lat="52.157649" lon="21.833190">
        <ele>167.998031</ele>
        <time>2026-05-07T15:22:46.763Z</time>
      </trkpt>
      <trkpt lat="52.157728" lon="21.833046">
        <ele>168.188822</ele>
        <time>2026-05-07T15:22:48.562Z</time>
      </trkpt>
      <trkpt lat="52.158160" lon="21.832435">
        <ele>168.673407</ele>
        <time>2026-05-07T15:22:56.802Z</time>
      </trkpt>
      <trkpt lat="52.158319" lon="21.832159">
        <ele>168.870200</ele>
        <time>2026-05-07T15:22:59.964Z</time>
      </trkpt>
      <trkpt lat="52.158638" lon="21.831382">
        <ele>169.356152</ele>
        <time>2026-05-07T15:23:07.671Z</time>
      </trkpt>
      <trkpt lat="52.159109" lon="21.830511">
        <ele>169.717932</ele>
        <time>2026-05-07T15:23:18.125Z</time>
      </trkpt>
      <trkpt lat="52.159446" lon="21.829734">
        <ele>169.781417</ele>
        <time>2026-05-07T15:23:26.129Z</time>
      </trkpt>
      <trkpt lat="52.159704" lon="21.829098">
        <ele>169.832285</ele>
        <time>2026-05-07T15:23:31.486Z</time>
      </trkpt>
      <trkpt lat="52.159824" lon="21.828679">
        <ele>169.863135</ele>
        <time>2026-05-07T15:23:34.488Z</time>
      </trkpt>
      <trkpt lat="52.160050" lon="21.827798">
        <ele>169.586256</ele>
        <time>2026-05-07T15:23:40.357Z</time>
      </trkpt>
      <trkpt lat="52.160138" lon="21.827253">
        <ele>169.361984</ele>
        <time>2026-05-07T15:23:43.732Z</time>
      </trkpt>
      <trkpt lat="52.160327" lon="21.825986">
        <ele>168.843085</ele>
        <time>2026-05-07T15:23:51.841Z</time>
      </trkpt>
      <trkpt lat="52.160375" lon="21.825767">
        <ele>168.750538</ele>
        <time>2026-05-07T15:23:53.453Z</time>
      </trkpt>
      <trkpt lat="52.160474" lon="21.825534">
        <ele>168.717913</ele>
        <time>2026-05-07T15:23:55.475Z</time>
      </trkpt>
      <trkpt lat="52.160760" lon="21.825222">
        <ele>168.738478</ele>
        <time>2026-05-07T15:23:59.598Z</time>
      </trkpt>
      <trkpt lat="52.162185" lon="21.824018">
        <ele>168.837613</ele>
        <time>2026-05-07T15:24:19.665Z</time>
      </trkpt>
      <trkpt lat="52.162303" lon="21.823727">
        <ele>168.853013</ele>
        <time>2026-05-07T15:24:22.132Z</time>
      </trkpt>
      <trkpt lat="52.162463" lon="21.823049">
        <ele>168.885083</ele>
        <time>2026-05-07T15:24:27.231Z</time>
      </trkpt>
      <trkpt lat="52.162780" lon="21.822010">
        <ele>168.936312</ele>
        <time>2026-05-07T15:24:35.886Z</time>
      </trkpt>
      <trkpt lat="52.163165" lon="21.820640">
        <ele>169.088977</ele>
        <time>2026-05-07T15:24:47.518Z</time>
      </trkpt>
      <trkpt lat="52.163229" lon="21.820288">
        <ele>169.130682</ele>
        <time>2026-05-07T15:24:50.590Z</time>
      </trkpt>
      <trkpt lat="52.163475" lon="21.817077">
        <ele>169.042396</ele>
        <time>2026-05-07T15:25:14.733Z</time>
      </trkpt>
      <trkpt lat="52.163533" lon="21.815889">
        <ele>168.780814</ele>
        <time>2026-05-07T15:25:22.276Z</time>
      </trkpt>
      <trkpt lat="52.163465" lon="21.814873">
        <ele>167.978725</ele>
        <time>2026-05-07T15:25:28.303Z</time>
      </trkpt>
      <trkpt lat="52.163358" lon="21.814207">
        <ele>167.438417</ele>
        <time>2026-05-07T15:25:32.187Z</time>
      </trkpt>
      <trkpt lat="52.162677" lon="21.811203">
        <ele>164.915329</ele>
        <time>2026-05-07T15:25:50.204Z</time>
      </trkpt>
      <trkpt lat="52.162355" lon="21.809903">
        <ele>164.167336</ele>
        <time>2026-05-07T15:25:58.872Z</time>
      </trkpt>
      <trkpt lat="52.161907" lon="21.808279">
        <ele>163.789307</ele>
        <time>2026-05-07T15:26:11.500Z</time>
      </trkpt>
      <trkpt lat="52.161378" lon="21.805304">
        <ele>162.769399</ele>
        <time>2026-05-07T15:26:32.502Z</time>
      </trkpt>
      <trkpt lat="52.161334" lon="21.804820">
        <ele>162.532080</ele>
        <time>2026-05-07T15:26:35.157Z</time>
      </trkpt>
      <trkpt lat="52.162535" lon="21.804805">
        <ele>160.829125</ele>
        <time>2026-05-07T15:26:46.009Z</time>
      </trkpt>
      <trkpt lat="52.162688" lon="21.804804">
        <ele>160.612184</ele>
        <time>2026-05-07T15:26:47.333Z</time>
      </trkpt>
      <trkpt lat="52.163025" lon="21.804798">
        <ele>160.134321</ele>
        <time>2026-05-07T15:26:50.441Z</time>
      </trkpt>
      <trkpt lat="52.163190" lon="21.804732">
        <ele>160.090643</ele>
        <time>2026-05-07T15:26:52.156Z</time>
      </trkpt>
      <trkpt lat="52.163405" lon="21.804552">
        <ele>160.091341</ele>
        <time>2026-05-07T15:26:54.872Z</time>
      </trkpt>
      <trkpt lat="52.163587" lon="21.804388">
        <ele>160.091943</ele>
        <time>2026-05-07T15:26:57.602Z</time>
      </trkpt>
      <trkpt lat="52.163802" lon="21.804204">
        <ele>160.092644</ele>
        <time>2026-05-07T15:27:00.828Z</time>
      </trkpt>
      <trkpt lat="52.164170" lon="21.804051">
        <ele>160.093742</ele>
        <time>2026-05-07T15:27:04.906Z</time>
      </trkpt>
      <trkpt lat="52.164203" lon="21.804036">
        <ele>160.093841</ele>
        <time>2026-05-07T15:27:05.251Z</time>
      </trkpt>
      <trkpt lat="52.164292" lon="21.804065">
        <ele>160.094103</ele>
        <time>2026-05-07T15:27:06.210Z</time>
      </trkpt>
      <trkpt lat="52.164369" lon="21.804137">
        <ele>160.094360</ele>
        <time>2026-05-07T15:27:07.274Z</time>
      </trkpt>
      <trkpt lat="52.164414" lon="21.804363">
        <ele>160.094781</ele>
        <time>2026-05-07T15:27:09.178Z</time>
      </trkpt>
      <trkpt lat="52.164517" lon="21.804870">
        <ele>160.247576</ele>
        <time>2026-05-07T15:27:14.392Z</time>
      </trkpt>
      <trkpt lat="52.164561" lon="21.805187">
        <ele>160.552235</ele>
        <time>2026-05-07T15:27:17.598Z</time>
      </trkpt>
      <trkpt lat="52.164615" lon="21.805359">
        <ele>160.733353</ele>
        <time>2026-05-07T15:27:19.553Z</time>
      </trkpt>
      <trkpt lat="52.164618" lon="21.805413">
        <ele>160.784178</ele>
        <time>2026-05-07T15:27:20.072Z</time>
      </trkpt>
      <trkpt lat="52.164684" lon="21.805482">
        <ele>160.903994</ele>
        <time>2026-05-07T15:27:21.344Z</time>
      </trkpt>
      <trkpt lat="52.164737" lon="21.805426">
        <ele>161.000510</ele>
        <time>2026-05-07T15:27:22.404Z</time>
      </trkpt>
      <trkpt lat="52.164743" lon="21.805357">
        <ele>161.065835</ele>
        <time>2026-05-07T15:27:23.118Z</time>
      </trkpt>
      <trkpt lat="52.164862" lon="21.805317">
        <ele>161.251511</ele>
        <time>2026-05-07T15:27:25.091Z</time>
      </trkpt>
      <trkpt lat="52.165416" lon="21.805069">
        <ele>162.129451</ele>
        <time>2026-05-07T15:27:35.198Z</time>
      </trkpt>
      <trkpt lat="52.166183" lon="21.804699">
        <ele>163.209983</ele>
        <time>2026-05-07T15:27:49.540Z</time>
      </trkpt>
      <trkpt lat="52.166402" lon="21.804677">
        <ele>163.451637</ele>
        <time>2026-05-07T15:27:53.268Z</time>
      </trkpt>
      <trkpt lat="52.165970" lon="21.803631">
        <ele>164.303506</ele>
        <time>2026-05-07T15:28:04.467Z</time>
      </trkpt>
      <trkpt lat="52.165880" lon="21.803399">
        <ele>164.488948</ele>
        <time>2026-05-07T15:28:06.817Z</time>
      </trkpt>
      <trkpt lat="52.165652" lon="21.802810">
        <ele>165.104598</ele>
        <time>2026-05-07T15:28:12.522Z</time>
      </trkpt>
      <trkpt lat="52.165586" lon="21.802578">
        <ele>165.463869</ele>
        <time>2026-05-07T15:28:14.773Z</time>
      </trkpt>
      <trkpt lat="52.165775" lon="21.802602">
        <ele>165.898051</ele>
        <time>2026-05-07T15:28:17.674Z</time>
      </trkpt>
      <trkpt lat="52.165956" lon="21.802635">
        <ele>166.315184</ele>
        <time>2026-05-07T15:28:20.550Z</time>
      </trkpt>
      <trkpt lat="52.166933" lon="21.802816">
        <ele>168.567232</ele>
        <time>2026-05-07T15:28:40.748Z</time>
      </trkpt>
      <trkpt lat="52.167156" lon="21.802854">
        <ele>169.182590</ele>
        <time>2026-05-07T15:28:46.305Z</time>
      </trkpt>
      <trkpt lat="52.168819" lon="21.803118">
        <ele>175.869204</ele>
        <time>2026-05-07T15:29:30.060Z</time>
      </trkpt>
      <trkpt lat="52.168857" lon="21.803331">
        <ele>176.225167</ele>
        <time>2026-05-07T15:29:33.062Z</time>
      </trkpt>
      <trkpt lat="52.169156" lon="21.803183">
        <ele>176.606498</ele>
        <time>2026-05-07T15:29:39.353Z</time>
      </trkpt>
      <trkpt lat="52.169658" lon="21.803269">
        <ele>177.222488</ele>
        <time>2026-05-07T15:29:47.543Z</time>
      </trkpt>
      <trkpt lat="52.170560" lon="21.803410">
        <ele>178.328294</ele>
        <time>2026-05-07T15:29:58.482Z</time>
      </trkpt>
      <trkpt lat="52.172945" lon="21.803781">
        <ele>178.259604</ele>
        <time>2026-05-07T15:30:25.763Z</time>
      </trkpt>
      <trkpt lat="52.174144" lon="21.803971">
        <ele>178.552591</ele>
        <time>2026-05-07T15:30:41.975Z</time>
      </trkpt>
      <trkpt lat="52.175893" lon="21.804267">
        <ele>179.191189</ele>
        <time>2026-05-07T15:31:04.419Z</time>
      </trkpt>
      <trkpt lat="52.176656" lon="21.804401">
        <ele>179.824972</ele>
        <time>2026-05-07T15:31:15.164Z</time>
      </trkpt>
      <trkpt lat="52.177022" lon="21.804463">
        <ele>180.139354</ele>
        <time>2026-05-07T15:31:20.735Z</time>
      </trkpt>
      <trkpt lat="52.177211" lon="21.804494">
        <ele>180.301645</ele>
        <time>2026-05-07T15:31:23.653Z</time>
      </trkpt>
      <trkpt lat="52.178915" lon="21.804763">
        <ele>181.736907</ele>
        <time>2026-05-07T15:31:49.636Z</time>
      </trkpt>
      <trkpt lat="52.179400" lon="21.804842">
        <ele>182.142159</ele>
        <time>2026-05-07T15:31:56.554Z</time>
      </trkpt>
      <trkpt lat="52.180084" lon="21.804949">
        <ele>182.035965</ele>
        <time>2026-05-07T15:32:05.289Z</time>
      </trkpt>
      <trkpt lat="52.181581" lon="21.805147">
        <ele>181.233005</ele>
        <time>2026-05-07T15:32:20.773Z</time>
      </trkpt>
      <trkpt lat="52.182479" lon="21.805250">
        <ele>180.033421</ele>
        <time>2026-05-07T15:32:29.101Z</time>
      </trkpt>
      <trkpt lat="52.184162" lon="21.805562">
        <ele>178.028073</ele>
        <time>2026-05-07T15:32:44.526Z</time>
      </trkpt>
      <trkpt lat="52.184516" lon="21.805627">
        <ele>177.637296</ele>
        <time>2026-05-07T15:32:48.117Z</time>
      </trkpt>
      <trkpt lat="52.184645" lon="21.805650">
        <ele>177.494945</ele>
        <time>2026-05-07T15:32:49.494Z</time>
      </trkpt>
      <trkpt lat="52.186160" lon="21.805917">
        <ele>176.846864</ele>
        <time>2026-05-07T15:33:07.642Z</time>
      </trkpt>
      <trkpt lat="52.188365" lon="21.806263">
        <ele>175.159378</ele>
        <time>2026-05-07T15:33:29.676Z</time>
      </trkpt>
      <trkpt lat="52.188873" lon="21.806339">
        <ele>174.756833</ele>
        <time>2026-05-07T15:33:34.609Z</time>
      </trkpt>
      <trkpt lat="52.191179" lon="21.806695">
        <ele>173.555706</ele>
        <time>2026-05-07T15:33:58.384Z</time>
      </trkpt>
      <trkpt lat="52.193351" lon="21.807050">
        <ele>173.757094</ele>
        <time>2026-05-07T15:34:27.000Z</time>
      </trkpt>
      <trkpt lat="52.194413" lon="21.807272">
        <ele>173.916638</ele>
        <time>2026-05-07T15:34:39.568Z</time>
      </trkpt>
      <trkpt lat="52.194527" lon="21.807331">
        <ele>173.923586</ele>
        <time>2026-05-07T15:34:41.041Z</time>
      </trkpt>
      <trkpt lat="52.194696" lon="21.807542">
        <ele>173.935948</ele>
        <time>2026-05-07T15:34:43.554Z</time>
      </trkpt>
      <trkpt lat="52.194843" lon="21.807899">
        <ele>173.951261</ele>
        <time>2026-05-07T15:34:46.838Z</time>
      </trkpt>
      <trkpt lat="52.195064" lon="21.808748">
        <ele>173.984104</ele>
        <time>2026-05-07T15:34:54.145Z</time>
      </trkpt>
      <trkpt lat="52.195343" lon="21.810328">
        <ele>173.577188</ele>
        <time>2026-05-07T15:35:05.542Z</time>
      </trkpt>
      <trkpt lat="52.195387" lon="21.810459">
        <ele>173.537763</ele>
        <time>2026-05-07T15:35:06.512Z</time>
      </trkpt>
      <trkpt lat="52.195471" lon="21.810547">
        <ele>173.494779</ele>
        <time>2026-05-07T15:35:07.535Z</time>
      </trkpt>
      <trkpt lat="52.195542" lon="21.810542">
        <ele>173.464179</ele>
        <time>2026-05-07T15:35:08.291Z</time>
      </trkpt>
      <trkpt lat="52.195644" lon="21.810445">
        <ele>173.413343</ele>
        <time>2026-05-07T15:35:09.523Z</time>
      </trkpt>
      <trkpt lat="52.195895" lon="21.809927">
        <ele>173.239068</ele>
        <time>2026-05-07T15:35:13.657Z</time>
      </trkpt>
      <trkpt lat="52.195960" lon="21.809724">
        <ele>173.060687</ele>
        <time>2026-05-07T15:35:15.055Z</time>
      </trkpt>
      <trkpt lat="52.196147" lon="21.808845">
        <ele>171.969295</ele>
        <time>2026-05-07T15:35:20.339Z</time>
      </trkpt>
      <trkpt lat="52.196265" lon="21.808525">
        <ele>171.531252</ele>
        <time>2026-05-07T15:35:22.360Z</time>
      </trkpt>
      <trkpt lat="52.196451" lon="21.808253">
        <ele>171.053252</ele>
        <time>2026-05-07T15:35:24.508Z</time>
      </trkpt>
      <trkpt lat="52.196553" lon="21.808164">
        <ele>170.831897</ele>
        <time>2026-05-07T15:35:25.481Z</time>
      </trkpt>
      <trkpt lat="52.196732" lon="21.808077">
        <ele>170.474477</ele>
        <time>2026-05-07T15:35:27.036Z</time>
      </trkpt>
      <trkpt lat="52.198272" lon="21.807926">
        <ele>167.774250</ele>
        <time>2026-05-07T15:35:40.061Z</time>
      </trkpt>
      <trkpt lat="52.198510" lon="21.807894">
        <ele>167.368491</ele>
        <time>2026-05-07T15:35:42.438Z</time>
      </trkpt>
      <trkpt lat="52.199316" lon="21.807785">
        <ele>167.053673</ele>
        <time>2026-05-07T15:35:52.071Z</time>
      </trkpt>
      <trkpt lat="52.200123" lon="21.807676">
        <ele>167.700773</ele>
        <time>2026-05-07T15:36:03.572Z</time>
      </trkpt>
      <trkpt lat="52.200655" lon="21.807662">
        <ele>168.125964</ele>
        <time>2026-05-07T15:36:11.959Z</time>
      </trkpt>
      <trkpt lat="52.204321" lon="21.808827">
        <ele>176.390530</ele>
        <time>2026-05-07T15:37:24.885Z</time>
      </trkpt>
      <trkpt lat="52.204441" lon="21.808922">
        <ele>176.560266</ele>
        <time>2026-05-07T15:37:26.967Z</time>
      </trkpt>
      <trkpt lat="52.204533" lon="21.809092">
        <ele>176.737143</ele>
        <time>2026-05-07T15:37:29.115Z</time>
      </trkpt>
      <trkpt lat="52.205050" lon="21.810235">
        <ele>177.845073</ele>
        <time>2026-05-07T15:37:42.573Z</time>
      </trkpt>
      <trkpt lat="52.205819" lon="21.809358">
        <ele>179.009463</ele>
        <time>2026-05-07T15:37:56.346Z</time>
      </trkpt>
      <trkpt lat="52.206682" lon="21.808377">
        <ele>180.267666</ele>
        <time>2026-05-07T15:38:13.184Z</time>
      </trkpt>
      <trkpt lat="52.207378" lon="21.809929">
        <ele>181.751594</ele>
        <time>2026-05-07T15:38:32.086Z</time>
      </trkpt>
      <trkpt lat="52.207756" lon="21.810767">
        <ele>182.572053</ele>
        <time>2026-05-07T15:38:42.475Z</time>
      </trkpt>
      <trkpt lat="52.208078" lon="21.811475">
        <ele>183.087073</ele>
        <time>2026-05-07T15:38:51.027Z</time>
      </trkpt>
      <trkpt lat="52.208159" lon="21.811655">
        <ele>183.138822</ele>
        <time>2026-05-07T15:38:53.086Z</time>
      </trkpt>
      <trkpt lat="52.208522" lon="21.812462">
        <ele>183.370800</ele>
        <time>2026-05-07T15:39:02.021Z</time>
      </trkpt>
      <trkpt lat="52.208586" lon="21.812601">
        <ele>183.411089</ele>
        <time>2026-05-07T15:39:03.367Z</time>
      </trkpt>
      <trkpt lat="52.208860" lon="21.813211">
        <ele>183.586351</ele>
        <time>2026-05-07T15:39:08.610Z</time>
      </trkpt>
      <trkpt lat="52.208948" lon="21.813106">
        <ele>183.627574</ele>
        <time>2026-05-07T15:39:09.842Z</time>
      </trkpt>
      <trkpt lat="52.209634" lon="21.812258">
        <ele>182.922100</ele>
        <time>2026-05-07T15:39:18.630Z</time>
      </trkpt>
      <trkpt lat="52.210059" lon="21.813209">
        <ele>182.116586</ele>
        <time>2026-05-07T15:39:25.457Z</time>
      </trkpt>
      <trkpt lat="52.210498" lon="21.814191">
        <ele>181.155688</ele>
        <time>2026-05-07T15:39:32.139Z</time>
      </trkpt>
      <trkpt lat="52.210519" lon="21.814237">
        <ele>181.103729</ele>
        <time>2026-05-07T15:39:32.462Z</time>
      </trkpt>
      <trkpt lat="52.210911" lon="21.815128">
        <ele>180.110200</ele>
        <time>2026-05-07T15:39:38.592Z</time>
      </trkpt>
      <trkpt lat="52.210981" lon="21.815205">
        <ele>179.985415</ele>
        <time>2026-05-07T15:39:39.360Z</time>
      </trkpt>
      <trkpt lat="52.211099" lon="21.815146">
        <ele>179.802985</ele>
        <time>2026-05-07T15:39:40.481Z</time>
      </trkpt>
      <trkpt lat="52.211618" lon="21.814665">
        <ele>178.984106</ele>
        <time>2026-05-07T15:39:46.032Z</time>
      </trkpt>
      <trkpt lat="52.211706" lon="21.814629">
        <ele>178.931722</ele>
        <time>2026-05-07T15:39:46.940Z</time>
      </trkpt>
      <trkpt lat="52.211768" lon="21.814642">
        <ele>178.895628</ele>
        <time>2026-05-07T15:39:47.575Z</time>
      </trkpt>
      <trkpt lat="52.215213" lon="21.816304">
        <ele>177.351703</ele>
        <time>2026-05-07T15:40:26.443Z</time>
      </trkpt>
      <trkpt lat="52.215223" lon="21.816253">
        <ele>177.351802</ele>
        <time>2026-05-07T15:40:28.723Z</time>
      </trkpt>
      <trkpt lat="52.213793" lon="21.815551">
        <ele>177.356317</ele>
        <time>2026-05-07T15:42:12.501Z</time>
      </trkpt>
      <trkpt lat="52.215223" lon="21.816253">
        <ele>177.538329</ele>
        <time>2026-05-07T15:43:56.278Z</time>
      </trkpt>
      <trkpt lat="52.215213" lon="21.816304">
        <ele>177.542473</ele>
        <time>2026-05-07T15:43:58.558Z</time>
      </trkpt>
      <trkpt lat="52.215305" lon="21.816352">
        <ele>177.554676</ele>
        <time>2026-05-07T15:43:59.826Z</time>
      </trkpt>
      <trkpt lat="52.215402" lon="21.816398">
        <ele>177.567437</ele>
        <time>2026-05-07T15:44:01.185Z</time>
      </trkpt>
      <trkpt lat="52.216560" lon="21.816979">
        <ele>178.423110</ele>
        <time>2026-05-07T15:44:18.517Z</time>
      </trkpt>
      <trkpt lat="52.217049" lon="21.817207">
        <ele>178.817407</ele>
        <time>2026-05-07T15:44:26.334Z</time>
      </trkpt>
      <trkpt lat="52.217149" lon="21.817254">
        <ele>178.898089</ele>
        <time>2026-05-07T15:44:27.922Z</time>
      </trkpt>
      <trkpt lat="52.217260" lon="21.817308">
        <ele>178.983288</ele>
        <time>2026-05-07T15:44:29.624Z</time>
      </trkpt>
      <trkpt lat="52.218130" lon="21.817750">
        <ele>179.352967</ele>
        <time>2026-05-07T15:44:42.063Z</time>
      </trkpt>
      <trkpt lat="52.220444" lon="21.818959">
        <ele>180.179515</ele>
        <time>2026-05-07T15:45:11.795Z</time>
      </trkpt>
      <trkpt lat="52.223750" lon="21.820590">
        <ele>183.012042</ele>
        <time>2026-05-07T15:46:04.181Z</time>
      </trkpt>
      <trkpt lat="52.224585" lon="21.821013">
        <ele>183.181414</ele>
        <time>2026-05-07T15:46:14.382Z</time>
      </trkpt>
      <trkpt lat="52.225078" lon="21.821212">
        <ele>183.059466</ele>
        <time>2026-05-07T15:46:19.651Z</time>
      </trkpt>
      <trkpt lat="52.225384" lon="21.821283">
        <ele>182.985249</ele>
        <time>2026-05-07T15:46:22.887Z</time>
      </trkpt>
      <trkpt lat="52.225721" lon="21.821282">
        <ele>182.904326</ele>
        <time>2026-05-07T15:46:26.472Z</time>
      </trkpt>
      <trkpt lat="52.229506" lon="21.820574">
        <ele>183.702826</ele>
        <time>2026-05-07T15:47:14.328Z</time>
      </trkpt>
      <trkpt lat="52.230318" lon="21.820390">
        <ele>184.327222</ele>
        <time>2026-05-07T15:47:25.771Z</time>
      </trkpt>
      <trkpt lat="52.232006" lon="21.820113">
        <ele>186.405443</ele>
        <time>2026-05-07T15:47:51.290Z</time>
      </trkpt>
      <trkpt lat="52.232763" lon="21.820030">
        <ele>187.755771</ele>
        <time>2026-05-07T15:48:05.448Z</time>
      </trkpt>
      <trkpt lat="52.232862" lon="21.820024">
        <ele>187.932091</ele>
        <time>2026-05-07T15:48:07.436Z</time>
      </trkpt>
      <trkpt lat="52.233697" lon="21.819956">
        <ele>189.895102</ele>
        <time>2026-05-07T15:48:25.241Z</time>
      </trkpt>
      <trkpt lat="52.234984" lon="21.819997">
        <ele>192.863641</ele>
        <time>2026-05-07T15:48:51.140Z</time>
      </trkpt>
      <trkpt lat="52.236961" lon="21.820462">
        <ele>194.318582</ele>
        <time>2026-05-07T15:49:19.159Z</time>
      </trkpt>
      <trkpt lat="52.240031" lon="21.821455">
        <ele>192.566641</ele>
        <time>2026-05-07T15:49:51.422Z</time>
      </trkpt>
      <trkpt lat="52.243542" lon="21.822664">
        <ele>188.498796</ele>
        <time>2026-05-07T15:50:25.761Z</time>
      </trkpt>
      <trkpt lat="52.243817" lon="21.822823">
        <ele>188.219848</ele>
        <time>2026-05-07T15:50:28.489Z</time>
      </trkpt>
      <trkpt lat="52.245301" lon="21.823890">
        <ele>186.920477</ele>
        <time>2026-05-07T15:50:44.352Z</time>
      </trkpt>
      <trkpt lat="52.246898" lon="21.825049">
        <ele>187.859163</ele>
        <time>2026-05-07T15:51:09.673Z</time>
      </trkpt>
      <trkpt lat="52.248459" lon="21.826194">
        <ele>188.262996</ele>
        <time>2026-05-07T15:51:31.423Z</time>
      </trkpt>
      <trkpt lat="52.250528" lon="21.827675">
        <ele>188.453917</ele>
        <time>2026-05-07T15:51:56.819Z</time>
      </trkpt>
      <trkpt lat="52.254892" lon="21.830768">
        <ele>193.651806</ele>
        <time>2026-05-07T15:53:12.388Z</time>
      </trkpt>
      <trkpt lat="52.258144" lon="21.833125">
        <ele>195.278933</ele>
        <time>2026-05-07T15:54:00.548Z</time>
      </trkpt>
      <trkpt lat="52.258949" lon="21.833828">
        <ele>194.598262</ele>
        <time>2026-05-07T15:54:09.648Z</time>
      </trkpt>
      <trkpt lat="52.261019" lon="21.835770">
        <ele>190.759059</ele>
        <time>2026-05-07T15:54:31.243Z</time>
      </trkpt>
      <trkpt lat="52.262935" lon="21.837646">
        <ele>186.968852</ele>
        <time>2026-05-07T15:54:50.481Z</time>
      </trkpt>
      <trkpt lat="52.264521" lon="21.839257">
        <ele>187.568202</ele>
        <time>2026-05-07T15:55:18.303Z</time>
      </trkpt>
      <trkpt lat="52.267903" lon="21.842836">
        <ele>187.954171</ele>
        <time>2026-05-07T15:56:10.283Z</time>
      </trkpt>
      <trkpt lat="52.272643" lon="21.847762">
        <ele>174.573173</ele>
        <time>2026-05-07T15:56:57.330Z</time>
      </trkpt>
      <trkpt lat="52.273615" lon="21.848799">
        <ele>172.292146</ele>
        <time>2026-05-07T15:57:07.799Z</time>
      </trkpt>
      <trkpt lat="52.274420" lon="21.849709">
        <ele>170.787794</ele>
        <time>2026-05-07T15:57:16.777Z</time>
      </trkpt>
      <trkpt lat="52.274362" lon="21.849789">
        <ele>170.676676</ele>
        <time>2026-05-07T15:57:17.768Z</time>
      </trkpt>
      <trkpt lat="52.274085" lon="21.850403">
        <ele>169.993280</ele>
        <time>2026-05-07T15:57:23.815Z</time>
      </trkpt>
      <trkpt lat="52.273852" lon="21.851228">
        <ele>169.302902</ele>
        <time>2026-05-07T15:57:31.313Z</time>
      </trkpt>
      <trkpt lat="52.273702" lon="21.851929">
        <ele>169.049104</ele>
        <time>2026-05-07T15:57:37.781Z</time>
      </trkpt>
      <trkpt lat="52.273333" lon="21.854572">
        <ele>167.612579</ele>
        <time>2026-05-07T15:58:03.441Z</time>
      </trkpt>
      <trkpt lat="52.273254" lon="21.855160">
        <ele>166.990323</ele>
        <time>2026-05-07T15:58:08.696Z</time>
      </trkpt>
      <trkpt lat="52.272478" lon="21.861564">
        <ele>160.194066</ele>
        <time>2026-05-07T15:58:58.786Z</time>
      </trkpt>
      <trkpt lat="52.272446" lon="21.861829">
        <ele>159.908312</ele>
        <time>2026-05-07T15:59:00.849Z</time>
      </trkpt>
      <trkpt lat="52.272440" lon="21.861881">
        <ele>159.852331</ele>
        <time>2026-05-07T15:59:01.243Z</time>
      </trkpt>
      <trkpt lat="52.272061" lon="21.864952">
        <ele>158.105129</ele>
        <time>2026-05-07T15:59:28.688Z</time>
      </trkpt>
      <trkpt lat="52.272029" lon="21.865408">
        <ele>157.912771</ele>
        <time>2026-05-07T15:59:33.059Z</time>
      </trkpt>
      <trkpt lat="52.272054" lon="21.865866">
        <ele>157.827307</ele>
        <time>2026-05-07T15:59:37.438Z</time>
      </trkpt>
      <trkpt lat="52.272144" lon="21.866460">
        <ele>157.713568</ele>
        <time>2026-05-07T15:59:43.231Z</time>
      </trkpt>
      <trkpt lat="52.272488" lon="21.868084">
        <ele>157.394150</ele>
        <time>2026-05-07T15:59:59.195Z</time>
      </trkpt>
      <trkpt lat="52.272693" lon="21.869336">
        <ele>157.303334</ele>
        <time>2026-05-07T16:00:11.904Z</time>
      </trkpt>
      <trkpt lat="52.272890" lon="21.871714">
        <ele>157.082398</ele>
        <time>2026-05-07T16:00:35.413Z</time>
      </trkpt>
      <trkpt lat="52.272924" lon="21.872127">
        <ele>157.004064</ele>
        <time>2026-05-07T16:00:39.158Z</time>
      </trkpt>
      <trkpt lat="52.273022" lon="21.873153">
        <ele>156.808864</ele>
        <time>2026-05-07T16:00:48.580Z</time>
      </trkpt>
      <trkpt lat="52.273134" lon="21.874037">
        <ele>156.648640</ele>
        <time>2026-05-07T16:00:57.047Z</time>
      </trkpt>
      <trkpt lat="52.273149" lon="21.874345">
        <ele>156.648599</ele>
        <time>2026-05-07T16:00:59.985Z</time>
      </trkpt>
      <trkpt lat="52.273123" lon="21.875337">
        <ele>156.648467</ele>
        <time>2026-05-07T16:01:09.726Z</time>
      </trkpt>
      <trkpt lat="52.273218" lon="21.878545">
        <ele>156.561994</ele>
        <time>2026-05-07T16:01:42.298Z</time>
      </trkpt>
      <trkpt lat="52.273186" lon="21.878761">
        <ele>156.550194</ele>
        <time>2026-05-07T16:01:44.532Z</time>
      </trkpt>
      <trkpt lat="52.273117" lon="21.878894">
        <ele>156.540936</ele>
        <time>2026-05-07T16:01:46.250Z</time>
      </trkpt>
      <trkpt lat="52.273073" lon="21.878924">
        <ele>156.536798</ele>
        <time>2026-05-07T16:01:47.035Z</time>
      </trkpt>
      <trkpt lat="52.272864" lon="21.878905">
        <ele>156.518635</ele>
        <time>2026-05-07T16:01:50.315Z</time>
      </trkpt>
      <trkpt lat="52.272743" lon="21.878973">
        <ele>156.507531</ele>
        <time>2026-05-07T16:01:52.323Z</time>
      </trkpt>
      <trkpt lat="52.272681" lon="21.879107">
        <ele>156.498611</ele>
        <time>2026-05-07T16:01:53.923Z</time>
      </trkpt>
      <trkpt lat="52.272307" lon="21.881030">
        <ele>155.180477</ele>
        <time>2026-05-07T16:02:11.303Z</time>
      </trkpt>
      <trkpt lat="52.271276" lon="21.885747">
        <ele>150.748130</ele>
        <time>2026-05-07T16:02:50.738Z</time>
      </trkpt>
      <trkpt lat="52.271075" lon="21.886550">
        <ele>150.265026</ele>
        <time>2026-05-07T16:02:57.980Z</time>
      </trkpt>
      <trkpt lat="52.271026" lon="21.886971">
        <ele>150.026394</ele>
        <time>2026-05-07T16:03:01.999Z</time>
      </trkpt>
      <trkpt lat="52.271023" lon="21.887275">
        <ele>149.857093</ele>
        <time>2026-05-07T16:03:05.058Z</time>
      </trkpt>
      <trkpt lat="52.271194" lon="21.888996">
        <ele>149.510952</ele>
        <time>2026-05-07T16:03:22.919Z</time>
      </trkpt>
      <trkpt lat="52.271219" lon="21.889481">
        <ele>149.452387</ele>
        <time>2026-05-07T16:03:27.932Z</time>
      </trkpt>
      <trkpt lat="52.271208" lon="21.889981">
        <ele>149.392184</ele>
        <time>2026-05-07T16:03:32.617Z</time>
      </trkpt>
      <trkpt lat="52.271124" lon="21.890789">
        <ele>149.173037</ele>
        <time>2026-05-07T16:03:37.523Z</time>
      </trkpt>
      <trkpt lat="52.270624" lon="21.894421">
        <ele>147.406304</ele>
        <time>2026-05-07T16:04:00.098Z</time>
      </trkpt>
      <trkpt lat="52.270232" lon="21.897275">
        <ele>146.280701</ele>
        <time>2026-05-07T16:04:19.473Z</time>
      </trkpt>
      <trkpt lat="52.270184" lon="21.897927">
        <ele>145.992330</ele>
        <time>2026-05-07T16:04:23.591Z</time>
      </trkpt>
      <trkpt lat="52.270203" lon="21.898764">
        <ele>145.624533</ele>
        <time>2026-05-07T16:04:28.594Z</time>
      </trkpt>
      <trkpt lat="52.270421" lon="21.901475">
        <ele>144.661541</ele>
        <time>2026-05-07T16:04:44.974Z</time>
      </trkpt>
      <trkpt lat="52.270447" lon="21.901685">
        <ele>144.589065</ele>
        <time>2026-05-07T16:04:46.780Z</time>
      </trkpt>
      <trkpt lat="52.270502" lon="21.902060">
        <ele>144.471217</ele>
        <time>2026-05-07T16:04:50.302Z</time>
      </trkpt>
      <trkpt lat="52.270527" lon="21.902199">
        <ele>144.525783</ele>
        <time>2026-05-07T16:04:51.606Z</time>
      </trkpt>
      <trkpt lat="52.270679" lon="21.903113">
        <ele>144.882504</ele>
        <time>2026-05-07T16:05:00.227Z</time>
      </trkpt>
      <trkpt lat="52.270672" lon="21.903280">
        <ele>144.945548</ele>
        <time>2026-05-07T16:05:01.821Z</time>
      </trkpt>
      <trkpt lat="52.270578" lon="21.903620">
        <ele>145.086063</ele>
        <time>2026-05-07T16:05:05.383Z</time>
      </trkpt>
      <trkpt lat="52.270322" lon="21.904480">
        <ele>145.446252</ele>
        <time>2026-05-07T16:05:13.877Z</time>
      </trkpt>
      <trkpt lat="52.269531" lon="21.907146">
        <ele>145.082987</ele>
        <time>2026-05-07T16:05:33.671Z</time>
      </trkpt>
      <trkpt lat="52.269429" lon="21.907604">
        <ele>144.970405</ele>
        <time>2026-05-07T16:05:36.740Z</time>
      </trkpt>
      <trkpt lat="52.269349" lon="21.908106">
        <ele>144.809888</ele>
        <time>2026-05-07T16:05:40.074Z</time>
      </trkpt>
      <trkpt lat="52.269235" lon="21.909190">
        <ele>144.469543</ele>
        <time>2026-05-07T16:05:46.993Z</time>
      </trkpt>
      <trkpt lat="52.269176" lon="21.909890">
        <ele>144.250892</ele>
        <time>2026-05-07T16:05:51.611Z</time>
      </trkpt>
      <trkpt lat="52.269144" lon="21.910317">
        <ele>144.117776</ele>
        <time>2026-05-07T16:05:54.573Z</time>
      </trkpt>
      <trkpt lat="52.269142" lon="21.910466">
        <ele>144.133064</ele>
        <time>2026-05-07T16:05:55.614Z</time>
      </trkpt>
      <trkpt lat="52.268926" lon="21.910308">
        <ele>144.178911</ele>
        <time>2026-05-07T16:05:58.246Z</time>
      </trkpt>
      <trkpt lat="52.268733" lon="21.910182">
        <ele>144.219174</ele>
        <time>2026-05-07T16:06:00.687Z</time>
      </trkpt>
      <trkpt lat="52.268365" lon="21.909957">
        <ele>144.295293</ele>
        <time>2026-05-07T16:06:05.393Z</time>
      </trkpt>
      <trkpt lat="52.268733" lon="21.910182">
        <ele>144.371411</ele>
        <time>2026-05-07T16:06:10.276Z</time>
      </trkpt>
      <trkpt lat="52.268926" lon="21.910308">
        <ele>144.411674</ele>
        <time>2026-05-07T16:06:13.240Z</time>
      </trkpt>
      <trkpt lat="52.269142" lon="21.910466">
        <ele>144.457521</ele>
        <time>2026-05-07T16:06:16.558Z</time>
      </trkpt>
      <trkpt lat="52.269146" lon="21.910686">
        <ele>144.569057</ele>
        <time>2026-05-07T16:06:18.375Z</time>
      </trkpt>
      <trkpt lat="52.269145" lon="21.910927">
        <ele>144.725370</ele>
        <time>2026-05-07T16:06:20.402Z</time>
      </trkpt>
      <trkpt lat="52.269149" lon="21.911179">
        <ele>144.888869</ele>
        <time>2026-05-07T16:06:22.591Z</time>
      </trkpt>
      <trkpt lat="52.269161" lon="21.911585">
        <ele>145.152502</ele>
        <time>2026-05-07T16:06:26.436Z</time>
      </trkpt>
      <trkpt lat="52.269162" lon="21.911813">
        <ele>145.300383</ele>
        <time>2026-05-07T16:06:28.798Z</time>
      </trkpt>
      <trkpt lat="52.269164" lon="21.912168">
        <ele>145.530641</ele>
        <time>2026-05-07T16:06:32.353Z</time>
      </trkpt>
      <trkpt lat="52.269165" lon="21.912335">
        <ele>145.638960</ele>
        <time>2026-05-07T16:06:33.975Z</time>
      </trkpt>
      <trkpt lat="52.269163" lon="21.913217">
        <ele>146.211017</ele>
        <time>2026-05-07T16:06:42.580Z</time>
      </trkpt>
      <trkpt lat="52.269188" lon="21.913554">
        <ele>146.378115</ele>
        <time>2026-05-07T16:06:45.823Z</time>
      </trkpt>
      <trkpt lat="52.269307" lon="21.913986">
        <ele>146.415257</ele>
        <time>2026-05-07T16:06:49.990Z</time>
      </trkpt>
      <trkpt lat="52.269505" lon="21.914499">
        <ele>146.462806</ele>
        <time>2026-05-07T16:06:55.544Z</time>
      </trkpt>
      <trkpt lat="52.269545" lon="21.914748">
        <ele>146.482989</ele>
        <time>2026-05-07T16:06:57.744Z</time>
      </trkpt>
      <trkpt lat="52.269551" lon="21.914889">
        <ele>146.494069</ele>
        <time>2026-05-07T16:06:58.956Z</time>
      </trkpt>
      <trkpt lat="52.269540" lon="21.915283">
        <ele>146.524990</ele>
        <time>2026-05-07T16:07:01.908Z</time>
      </trkpt>
      <trkpt lat="52.269503" lon="21.915288">
        <ele>146.529747</ele>
        <time>2026-05-07T16:07:02.367Z</time>
      </trkpt>
      <trkpt lat="52.269350" lon="21.915799">
        <ele>146.574346</ele>
        <time>2026-05-07T16:07:06.083Z</time>
      </trkpt>
      <trkpt lat="52.269301" lon="21.915966">
        <ele>146.588866</ele>
        <time>2026-05-07T16:07:07.157Z</time>
      </trkpt>
      <trkpt lat="52.269056" lon="21.916795">
        <ele>146.006865</ele>
        <time>2026-05-07T16:07:12.197Z</time>
      </trkpt>
      <trkpt lat="52.268969" lon="21.917110">
        <ele>145.737539</ele>
        <time>2026-05-07T16:07:14.079Z</time>
      </trkpt>
      <trkpt lat="52.268780" lon="21.917799">
        <ele>145.149115</ele>
        <time>2026-05-07T16:07:18.192Z</time>
      </trkpt>
      <trkpt lat="52.267675" lon="21.922155">
        <ele>142.988992</ele>
        <time>2026-05-07T16:07:48.007Z</time>
      </trkpt>
      <trkpt lat="52.262136" lon="21.943563">
        <ele>136.731983</ele>
        <time>2026-05-07T16:10:20.660Z</time>
      </trkpt>
      <trkpt lat="52.261945" lon="21.944115">
        <ele>136.623607</ele>
        <time>2026-05-07T16:10:24.781Z</time>
      </trkpt>
      <trkpt lat="52.261731" lon="21.944603">
        <ele>136.521004</ele>
        <time>2026-05-07T16:10:28.754Z</time>
      </trkpt>
      <trkpt lat="52.260756" lon="21.946673">
        <ele>136.640172</ele>
        <time>2026-05-07T16:10:47.684Z</time>
      </trkpt>
      <trkpt lat="52.260684" lon="21.946860">
        <ele>136.695704</ele>
        <time>2026-05-07T16:10:49.496Z</time>
      </trkpt>
      <trkpt lat="52.260646" lon="21.946980">
        <ele>136.729666</ele>
        <time>2026-05-07T16:10:50.590Z</time>
      </trkpt>
      <trkpt lat="52.260118" lon="21.949155">
        <ele>137.422999</ele>
        <time>2026-05-07T16:11:11.360Z</time>
      </trkpt>
      <trkpt lat="52.260010" lon="21.949677">
        <ele>137.614358</ele>
        <time>2026-05-07T16:11:16.234Z</time>
      </trkpt>
      <trkpt lat="52.259988" lon="21.949889">
        <ele>137.689033</ele>
        <time>2026-05-07T16:11:18.080Z</time>
      </trkpt>
      <trkpt lat="52.259998" lon="21.950070">
        <ele>137.752147</ele>
        <time>2026-05-07T16:11:19.627Z</time>
      </trkpt>
      <trkpt lat="52.260281" lon="21.951704">
        <ele>138.040122</ele>
        <time>2026-05-07T16:11:32.298Z</time>
      </trkpt>
      <trkpt lat="52.260422" lon="21.952486">
        <ele>138.017242</ele>
        <time>2026-05-07T16:11:37.496Z</time>
      </trkpt>
      <trkpt lat="52.260477" lon="21.952794">
        <ele>138.008237</ele>
        <time>2026-05-07T16:11:39.684Z</time>
      </trkpt>
      <trkpt lat="52.260574" lon="21.953333">
        <ele>137.992470</ele>
        <time>2026-05-07T16:11:43.732Z</time>
      </trkpt>
      <trkpt lat="52.260718" lon="21.954212">
        <ele>138.044260</ele>
        <time>2026-05-07T16:11:51.058Z</time>
      </trkpt>
      <trkpt lat="52.260793" lon="21.954879">
        <ele>138.136054</ele>
        <time>2026-05-07T16:11:56.964Z</time>
      </trkpt>
      <trkpt lat="52.260848" lon="21.956309">
        <ele>138.329996</ele>
        <time>2026-05-07T16:12:07.943Z</time>
      </trkpt>
      <trkpt lat="52.260853" lon="21.956668">
        <ele>138.379547</ele>
        <time>2026-05-07T16:12:10.354Z</time>
      </trkpt>
      <trkpt lat="52.260818" lon="21.957548">
        <ele>138.678996</ele>
        <time>2026-05-07T16:12:16.168Z</time>
      </trkpt>
      <trkpt lat="52.260331" lon="21.961838">
        <ele>140.612098</ele>
        <time>2026-05-07T16:12:55.941Z</time>
      </trkpt>
      <trkpt lat="52.259500" lon="21.967339">
        <ele>142.981373</ele>
        <time>2026-05-07T16:13:44.649Z</time>
      </trkpt>
      <trkpt lat="52.259481" lon="21.967436">
        <ele>143.018759</ele>
        <time>2026-05-07T16:13:45.457Z</time>
      </trkpt>
      <trkpt lat="52.258742" lon="21.972618">
        <ele>145.061363</ele>
        <time>2026-05-07T16:14:28.513Z</time>
      </trkpt>
      <trkpt lat="52.258406" lon="21.975007">
        <ele>145.710393</ele>
        <time>2026-05-07T16:14:54.705Z</time>
      </trkpt>
      <trkpt lat="52.258142" lon="21.976864">
        <ele>145.422639</ele>
        <time>2026-05-07T16:15:05.351Z</time>
      </trkpt>
      <trkpt lat="52.256219" lon="21.989708">
        <ele>137.112959</ele>
        <time>2026-05-07T16:16:23.792Z</time>
      </trkpt>
      <trkpt lat="52.255241" lon="21.996324">
        <ele>136.630105</ele>
        <time>2026-05-07T16:17:13.957Z</time>
      </trkpt>
      <trkpt lat="52.255063" lon="21.997041">
        <ele>136.477492</ele>
        <time>2026-05-07T16:17:18.880Z</time>
      </trkpt>
      <trkpt lat="52.254823" lon="21.997872">
        <ele>136.154438</ele>
        <time>2026-05-07T16:17:24.311Z</time>
      </trkpt>
      <trkpt lat="52.254346" lon="21.999389">
        <ele>135.560535</ele>
        <time>2026-05-07T16:17:35.274Z</time>
      </trkpt>
      <trkpt lat="52.253752" lon="22.001196">
        <ele>135.092731</ele>
        <time>2026-05-07T16:17:50.772Z</time>
      </trkpt>
      <trkpt lat="52.253732" lon="22.001380">
        <ele>135.050108</ele>
        <time>2026-05-07T16:17:51.927Z</time>
      </trkpt>
      <trkpt lat="52.253743" lon="22.001600">
        <ele>134.999762</ele>
        <time>2026-05-07T16:17:53.264Z</time>
      </trkpt>
      <trkpt lat="52.253832" lon="22.001910">
        <ele>134.921667</ele>
        <time>2026-05-07T16:17:55.277Z</time>
      </trkpt>
      <trkpt lat="52.254351" lon="22.002819">
        <ele>134.314163</ele>
        <time>2026-05-07T16:18:02.307Z</time>
      </trkpt>
      <trkpt lat="52.254470" lon="22.003091">
        <ele>134.143890</ele>
        <time>2026-05-07T16:18:04.134Z</time>
      </trkpt>
      <trkpt lat="52.255113" lon="22.006651">
        <ele>133.253580</ele>
        <time>2026-05-07T16:18:29.698Z</time>
      </trkpt>
      <trkpt lat="52.255496" lon="22.007874">
        <ele>132.966089</ele>
        <time>2026-05-07T16:18:40.411Z</time>
      </trkpt>
      <trkpt lat="52.256628" lon="22.011281">
        <ele>130.804039</ele>
        <time>2026-05-07T16:19:03.982Z</time>
      </trkpt>
      <trkpt lat="52.256725" lon="22.011694">
        <ele>130.430113</ele>
        <time>2026-05-07T16:19:06.326Z</time>
      </trkpt>
      <trkpt lat="52.256759" lon="22.011966">
        <ele>130.195445</ele>
        <time>2026-05-07T16:19:07.820Z</time>
      </trkpt>
      <trkpt lat="52.256780" lon="22.012457">
        <ele>129.779390</ele>
        <time>2026-05-07T16:19:10.472Z</time>
      </trkpt>
      <trkpt lat="52.256727" lon="22.013058">
        <ele>129.444318</ele>
        <time>2026-05-07T16:19:13.747Z</time>
      </trkpt>
      <trkpt lat="52.256630" lon="22.013492">
        <ele>129.213732</ele>
        <time>2026-05-07T16:19:16.380Z</time>
      </trkpt>
      <trkpt lat="52.256446" lon="22.013988">
        <ele>128.924278</ele>
        <time>2026-05-07T16:19:20.010Z</time>
      </trkpt>
      <trkpt lat="52.256302" lon="22.014259">
        <ele>128.745177</ele>
        <time>2026-05-07T16:19:22.400Z</time>
      </trkpt>
      <trkpt lat="52.256057" lon="22.014588">
        <ele>128.486599</ele>
        <time>2026-05-07T16:19:26.149Z</time>
      </trkpt>
      <trkpt lat="52.255870" lon="22.014776">
        <ele>128.307576</ele>
        <time>2026-05-07T16:19:28.754Z</time>
      </trkpt>
      <trkpt lat="52.255559" lon="22.014952">
        <ele>128.236958</ele>
        <time>2026-05-07T16:19:32.427Z</time>
      </trkpt>
      <trkpt lat="52.254326" lon="22.015296">
        <ele>128.248638</ele>
        <time>2026-05-07T16:19:46.336Z</time>
      </trkpt>
      <trkpt lat="52.254051" lon="22.015430">
        <ele>128.251318</ele>
        <time>2026-05-07T16:19:50.196Z</time>
      </trkpt>
      <trkpt lat="52.253520" lon="22.015764">
        <ele>129.147701</ele>
        <time>2026-05-07T16:19:58.968Z</time>
      </trkpt>
      <trkpt lat="52.253247" lon="22.015981">
        <ele>129.644244</ele>
        <time>2026-05-07T16:20:04.168Z</time>
      </trkpt>
      <trkpt lat="52.252522" lon="22.016623">
        <ele>130.992994</ele>
        <time>2026-05-07T16:20:20.052Z</time>
      </trkpt>
      <trkpt lat="52.252277" lon="22.016968">
        <ele>131.354782</ele>
        <time>2026-05-07T16:20:26.161Z</time>
      </trkpt>
      <trkpt lat="52.251903" lon="22.017618">
        <ele>131.793684</ele>
        <time>2026-05-07T16:20:35.383Z</time>
      </trkpt>
      <trkpt lat="52.251795" lon="22.017807">
        <ele>131.920893</ele>
        <time>2026-05-07T16:20:37.822Z</time>
      </trkpt>
      <trkpt lat="52.251767" lon="22.017772">
        <ele>131.949230</ele>
        <time>2026-05-07T16:20:38.361Z</time>
      </trkpt>
      <trkpt lat="52.248325" lon="22.013673">
        <ele>132.168905</ele>
        <time>2026-05-07T16:21:26.475Z</time>
      </trkpt>
      <trkpt lat="52.248154" lon="22.013511">
        <ele>132.152745</ele>
        <time>2026-05-07T16:21:29.065Z</time>
      </trkpt>
      <trkpt lat="52.247336" lon="22.012760">
        <ele>132.136581</ele>
        <time>2026-05-07T16:21:41.182Z</time>
      </trkpt>
      <trkpt lat="52.247034" lon="22.012439">
        <ele>132.130375</ele>
        <time>2026-05-07T16:21:45.512Z</time>
      </trkpt>
      <trkpt lat="52.246780" lon="22.012040">
        <ele>132.124305</ele>
        <time>2026-05-07T16:21:49.428Z</time>
      </trkpt>
      <trkpt lat="52.245303" lon="22.008265">
        <ele>130.660736</ele>
        <time>2026-05-07T16:22:17.551Z</time>
      </trkpt>
      <trkpt lat="52.244384" lon="22.005831">
        <ele>130.819343</ele>
        <time>2026-05-07T16:22:37.731Z</time>
      </trkpt>
      <trkpt lat="52.244103" lon="22.005134">
        <ele>131.177760</ele>
        <time>2026-05-07T16:22:45.243Z</time>
      </trkpt>
      <trkpt lat="52.243599" lon="22.004081">
        <ele>131.808419</ele>
        <time>2026-05-07T16:22:59.357Z</time>
      </trkpt>
      <trkpt lat="52.243063" lon="22.002982">
        <ele>132.584729</ele>
        <time>2026-05-07T16:23:13.330Z</time>
      </trkpt>
      <trkpt lat="52.242036" lon="22.001180">
        <ele>133.126436</ele>
        <time>2026-05-07T16:23:31.191Z</time>
      </trkpt>
      <trkpt lat="52.241985" lon="22.001093">
        <ele>133.122041</ele>
        <time>2026-05-07T16:23:32.014Z</time>
      </trkpt>
      <trkpt lat="52.241492" lon="22.000241">
        <ele>133.079262</ele>
        <time>2026-05-07T16:23:40.119Z</time>
      </trkpt>
      <trkpt lat="52.241419" lon="22.000156">
        <ele>133.073919</ele>
        <time>2026-05-07T16:23:41.170Z</time>
      </trkpt>
      <trkpt lat="52.241312" lon="22.000117">
        <ele>133.060068</ele>
        <time>2026-05-07T16:23:42.468Z</time>
      </trkpt>
      <trkpt lat="52.238547" lon="22.000499">
        <ele>132.598853</ele>
        <time>2026-05-07T16:24:13.621Z</time>
      </trkpt>
      <trkpt lat="52.236510" lon="22.000781">
        <ele>132.948148</ele>
        <time>2026-05-07T16:24:38.883Z</time>
      </trkpt>
      <trkpt lat="52.235903" lon="22.000766">
        <ele>133.133611</ele>
        <time>2026-05-07T16:24:47.523Z</time>
      </trkpt>
      <trkpt lat="52.234558" lon="22.000882">
        <ele>133.487742</ele>
        <time>2026-05-07T16:25:05.120Z</time>
      </trkpt>
      <trkpt lat="52.234274" lon="22.000870">
        <ele>133.562439</ele>
        <time>2026-05-07T16:25:08.394Z</time>
      </trkpt>
      <trkpt lat="52.232994" lon="22.000549">
        <ele>133.083896</ele>
        <time>2026-05-07T16:25:22.726Z</time>
      </trkpt>
      <trkpt lat="52.231879" lon="22.000180">
        <ele>132.672039</ele>
        <time>2026-05-07T16:25:34.255Z</time>
      </trkpt>
      <trkpt lat="52.230862" lon="21.999596">
        <ele>132.350047</ele>
        <time>2026-05-07T16:25:46.082Z</time>
      </trkpt>
      <trkpt lat="52.228754" lon="21.998154">
        <ele>133.227097</ele>
        <time>2026-05-07T16:26:16.884Z</time>
      </trkpt>
      <trkpt lat="52.227829" lon="21.997077">
        <ele>133.889420</ele>
        <time>2026-05-07T16:26:31.828Z</time>
      </trkpt>
      <trkpt lat="52.227003" lon="21.995875">
        <ele>134.584070</ele>
        <time>2026-05-07T16:26:48.433Z</time>
      </trkpt>
      <trkpt lat="52.226140" lon="21.994526">
        <ele>135.208474</ele>
        <time>2026-05-07T16:27:04.947Z</time>
      </trkpt>
      <trkpt lat="52.225668" lon="21.993979">
        <ele>134.986002</ele>
        <time>2026-05-07T16:27:11.196Z</time>
      </trkpt>
      <trkpt lat="52.224028" lon="21.992360">
        <ele>134.802755</ele>
        <time>2026-05-07T16:27:30.943Z</time>
      </trkpt>
      <trkpt lat="52.222595" lon="21.990849">
        <ele>135.781470</ele>
        <time>2026-05-07T16:27:57.170Z</time>
      </trkpt>
      <trkpt lat="52.221192" lon="21.989477">
        <ele>137.074861</ele>
        <time>2026-05-07T16:28:20.932Z</time>
      </trkpt>
      <trkpt lat="52.220758" lon="21.989170">
        <ele>137.307830</ele>
        <time>2026-05-07T16:28:27.399Z</time>
      </trkpt>
      <trkpt lat="52.220680" lon="21.989521">
        <ele>137.420493</ele>
        <time>2026-05-07T16:28:30.444Z</time>
      </trkpt>
      <trkpt lat="52.220343" lon="21.990464">
        <ele>137.654765</ele>
        <time>2026-05-07T16:28:38.912Z</time>
      </trkpt>
      <trkpt lat="52.218618" lon="21.995628">
        <ele>137.094658</ele>
        <time>2026-05-07T16:29:19.576Z</time>
      </trkpt>
      <trkpt lat="52.218477" lon="21.996110">
        <ele>137.115784</ele>
        <time>2026-05-07T16:29:23.082Z</time>
      </trkpt>
      <trkpt lat="52.218407" lon="21.996618">
        <ele>137.136380</ele>
        <time>2026-05-07T16:29:26.513Z</time>
      </trkpt>
      <trkpt lat="52.218390" lon="21.997421">
        <ele>137.168160</ele>
        <time>2026-05-07T16:29:32.340Z</time>
      </trkpt>
      <trkpt lat="52.218281" lon="21.998061">
        <ele>137.194435</ele>
        <time>2026-05-07T16:29:37.686Z</time>
      </trkpt>
      <trkpt lat="52.217608" lon="21.999907">
        <ele>138.842784</ele>
        <time>2026-05-07T16:29:57.693Z</time>
      </trkpt>
      <trkpt lat="52.217375" lon="22.000532">
        <ele>139.442364</ele>
        <time>2026-05-07T16:30:06.292Z</time>
      </trkpt>
      <trkpt lat="52.217198" lon="22.000867">
        <ele>139.830717</ele>
        <time>2026-05-07T16:30:11.482Z</time>
      </trkpt>
      <trkpt lat="52.216584" lon="22.001674">
        <ele>141.022149</ele>
        <time>2026-05-07T16:30:25.440Z</time>
      </trkpt>
      <trkpt lat="52.216419" lon="22.001962">
        <ele>141.387258</ele>
        <time>2026-05-07T16:30:29.805Z</time>
      </trkpt>
      <trkpt lat="52.216238" lon="22.002356">
        <ele>141.843258</ele>
        <time>2026-05-07T16:30:34.930Z</time>
      </trkpt>
      <trkpt lat="52.213962" lon="22.008965">
        <ele>143.643559</ele>
        <time>2026-05-07T16:31:33.481Z</time>
      </trkpt>
      <trkpt lat="52.213790" lon="22.009525">
        <ele>143.853046</ele>
        <time>2026-05-07T16:31:38.601Z</time>
      </trkpt>
      <trkpt lat="52.213751" lon="22.009737">
        <ele>143.927069</ele>
        <time>2026-05-07T16:31:40.545Z</time>
      </trkpt>
      <trkpt lat="52.213749" lon="22.009964">
        <ele>144.002991</ele>
        <time>2026-05-07T16:31:42.608Z</time>
      </trkpt>
      <trkpt lat="52.213799" lon="22.010199">
        <ele>144.086183</ele>
        <time>2026-05-07T16:31:44.887Z</time>
      </trkpt>
      <trkpt lat="52.213862" lon="22.010330">
        <ele>144.141875</ele>
        <time>2026-05-07T16:31:46.425Z</time>
      </trkpt>
      <trkpt lat="52.213934" lon="22.010438">
        <ele>144.195248</ele>
        <time>2026-05-07T16:31:47.868Z</time>
      </trkpt>
      <trkpt lat="52.214064" lon="22.010548">
        <ele>144.302535</ele>
        <time>2026-05-07T16:31:49.988Z</time>
      </trkpt>
      <trkpt lat="52.214233" lon="22.010580">
        <ele>144.448271</ele>
        <time>2026-05-07T16:31:52.395Z</time>
      </trkpt>
      <trkpt lat="52.214516" lon="22.010553">
        <ele>144.691104</ele>
        <time>2026-05-07T16:31:56.484Z</time>
      </trkpt>
      <trkpt lat="52.214608" lon="22.010596">
        <ele>144.773079</ele>
        <time>2026-05-07T16:31:57.939Z</time>
      </trkpt>
      <trkpt lat="52.214735" lon="22.010828">
        <ele>144.936362</ele>
        <time>2026-05-07T16:32:00.826Z</time>
      </trkpt>
      <trkpt lat="52.214741" lon="22.011175">
        <ele>145.118555</ele>
        <time>2026-05-07T16:32:04.086Z</time>
      </trkpt>
      <trkpt lat="52.214714" lon="22.011431">
        <ele>145.254892</ele>
        <time>2026-05-07T16:32:06.518Z</time>
      </trkpt>
      <trkpt lat="52.214666" lon="22.011588">
        <ele>145.346981</ele>
        <time>2026-05-07T16:32:08.149Z</time>
      </trkpt>
      <trkpt lat="52.214599" lon="22.011692">
        <ele>145.426185</ele>
        <time>2026-05-07T16:32:09.568Z</time>
      </trkpt>
      <trkpt lat="52.214515" lon="22.011761">
        <ele>145.506739</ele>
        <time>2026-05-07T16:32:10.962Z</time>
      </trkpt>
      <trkpt lat="52.214386" lon="22.011761">
        <ele>145.617241</ele>
        <time>2026-05-07T16:32:12.835Z</time>
      </trkpt>
      <trkpt lat="52.213941" lon="22.011372">
        <ele>145.765819</ele>
        <time>2026-05-07T16:32:19.587Z</time>
      </trkpt>
      <trkpt lat="52.213776" lon="22.011287">
        <ele>145.764755</ele>
        <time>2026-05-07T16:32:21.764Z</time>
      </trkpt>
      <trkpt lat="52.213635" lon="22.011282">
        <ele>145.763889</ele>
        <time>2026-05-07T16:32:23.565Z</time>
      </trkpt>
      <trkpt lat="52.213494" lon="22.011336">
        <ele>145.762998</ele>
        <time>2026-05-07T16:32:25.419Z</time>
      </trkpt>
      <trkpt lat="52.213263" lon="22.011565">
        <ele>145.761337</ele>
        <time>2026-05-07T16:32:28.685Z</time>
      </trkpt>
      <trkpt lat="52.213172" lon="22.011785">
        <ele>145.760338</ele>
        <time>2026-05-07T16:32:30.528Z</time>
      </trkpt>
      <trkpt lat="52.213035" lon="22.012239">
        <ele>145.758432</ele>
        <time>2026-05-07T16:32:33.878Z</time>
      </trkpt>
      <trkpt lat="52.212914" lon="22.012875">
        <ele>145.733227</ele>
        <time>2026-05-07T16:32:38.043Z</time>
      </trkpt>
      <trkpt lat="52.212903" lon="22.013432">
        <ele>145.675884</ele>
        <time>2026-05-07T16:32:41.478Z</time>
      </trkpt>
      <trkpt lat="52.213048" lon="22.014856">
        <ele>145.527351</ele>
        <time>2026-05-07T16:32:51.457Z</time>
      </trkpt>
      <trkpt lat="52.213024" lon="22.015323">
        <ele>145.479130</ele>
        <time>2026-05-07T16:32:55.180Z</time>
      </trkpt>
      <trkpt lat="52.212947" lon="22.015764">
        <ele>145.488661</ele>
        <time>2026-05-07T16:32:58.935Z</time>
      </trkpt>
      <trkpt lat="52.212809" lon="22.016186">
        <ele>145.561915</ele>
        <time>2026-05-07T16:33:02.907Z</time>
      </trkpt>
      <trkpt lat="52.212645" lon="22.016507">
        <ele>145.625921</ele>
        <time>2026-05-07T16:33:06.439Z</time>
      </trkpt>
      <trkpt lat="52.211746" lon="22.017909">
        <ele>145.893032</ele>
        <time>2026-05-07T16:33:21.889Z</time>
      </trkpt>
      <trkpt lat="52.211570" lon="22.018353">
        <ele>145.864933</ele>
        <time>2026-05-07T16:33:25.511Z</time>
      </trkpt>
      <trkpt lat="52.211178" lon="22.020090">
        <ele>145.766572</ele>
        <time>2026-05-07T16:33:38.153Z</time>
      </trkpt>
      <trkpt lat="52.210927" lon="22.021556">
        <ele>146.092504</ele>
        <time>2026-05-07T16:33:50.016Z</time>
      </trkpt>
      <trkpt lat="52.210888" lon="22.022021">
        <ele>146.229597</ele>
        <time>2026-05-07T16:33:53.940Z</time>
      </trkpt>
      <trkpt lat="52.210922" lon="22.023489">
        <ele>146.661551</ele>
        <time>2026-05-07T16:34:06.635Z</time>
      </trkpt>
      <trkpt lat="52.210902" lon="22.023898">
        <ele>146.787829</ele>
        <time>2026-05-07T16:34:10.141Z</time>
      </trkpt>
      <trkpt lat="52.210851" lon="22.024252">
        <ele>146.899751</ele>
        <time>2026-05-07T16:34:13.194Z</time>
      </trkpt>
      <trkpt lat="52.210752" lon="22.024632">
        <ele>147.026836</ele>
        <time>2026-05-07T16:34:16.628Z</time>
      </trkpt>
      <trkpt lat="52.210256" lon="22.025851">
        <ele>147.477194</ele>
        <time>2026-05-07T16:34:28.594Z</time>
      </trkpt>
      <trkpt lat="52.210136" lon="22.026312">
        <ele>147.614395</ele>
        <time>2026-05-07T16:34:32.622Z</time>
      </trkpt>
      <trkpt lat="52.209866" lon="22.028969">
        <ele>148.351103</ele>
        <time>2026-05-07T16:34:54.283Z</time>
      </trkpt>
      <trkpt lat="52.209688" lon="22.031212">
        <ele>149.282592</ele>
        <time>2026-05-07T16:35:13.438Z</time>
      </trkpt>
      <trkpt lat="52.209654" lon="22.031568">
        <ele>149.430980</ele>
        <time>2026-05-07T16:35:16.659Z</time>
      </trkpt>
      <trkpt lat="52.209538" lon="22.032265">
        <ele>149.926277</ele>
        <time>2026-05-07T16:35:23.281Z</time>
      </trkpt>
      <trkpt lat="52.209462" lon="22.034249">
        <ele>151.442097</ele>
        <time>2026-05-07T16:35:42.906Z</time>
      </trkpt>
      <trkpt lat="52.209456" lon="22.034402">
        <ele>151.559003</ele>
        <time>2026-05-07T16:35:44.471Z</time>
      </trkpt>
      <trkpt lat="52.209435" lon="22.035151">
        <ele>152.101850</ele>
        <time>2026-05-07T16:35:52.062Z</time>
      </trkpt>
      <trkpt lat="52.209425" lon="22.035537">
        <ele>152.374983</ele>
        <time>2026-05-07T16:35:55.921Z</time>
      </trkpt>
      <trkpt lat="52.209505" lon="22.036538">
        <ele>153.088649</ele>
        <time>2026-05-07T16:36:05.725Z</time>
      </trkpt>
      <trkpt lat="52.209465" lon="22.044983">
        <ele>157.603798</ele>
        <time>2026-05-07T16:37:20.882Z</time>
      </trkpt>
      <trkpt lat="52.209587" lon="22.047328">
        <ele>159.072007</ele>
        <time>2026-05-07T16:37:41.717Z</time>
      </trkpt>
      <trkpt lat="52.209597" lon="22.047936">
        <ele>159.548239</ele>
        <time>2026-05-07T16:37:47.562Z</time>
      </trkpt>
      <trkpt lat="52.209444" lon="22.050114">
        <ele>161.229079</ele>
        <time>2026-05-07T16:38:10.733Z</time>
      </trkpt>
      <trkpt lat="52.209417" lon="22.052095">
        <ele>162.696250</ele>
        <time>2026-05-07T16:38:30.608Z</time>
      </trkpt>
      <trkpt lat="52.209335" lon="22.056608">
        <ele>161.421804</ele>
        <time>2026-05-07T16:38:59.642Z</time>
      </trkpt>
      <trkpt lat="52.209163" lon="22.060281">
        <ele>159.474386</ele>
        <time>2026-05-07T16:39:21.692Z</time>
      </trkpt>
      <trkpt lat="52.209165" lon="22.060478">
        <ele>159.363338</ele>
        <time>2026-05-07T16:39:22.929Z</time>
      </trkpt>
      <trkpt lat="52.209204" lon="22.060716">
        <ele>159.224483</ele>
        <time>2026-05-07T16:39:24.466Z</time>
      </trkpt>
      <trkpt lat="52.209258" lon="22.060891">
        <ele>159.114051</ele>
        <time>2026-05-07T16:39:25.682Z</time>
      </trkpt>
      <trkpt lat="52.209320" lon="22.061008">
        <ele>159.067488</ele>
        <time>2026-05-07T16:39:26.632Z</time>
      </trkpt>
      <trkpt lat="52.209462" lon="22.061173">
        <ele>159.067690</ele>
        <time>2026-05-07T16:39:28.381Z</time>
      </trkpt>
      <trkpt lat="52.209718" lon="22.061263">
        <ele>159.067993</ele>
        <time>2026-05-07T16:39:30.983Z</time>
      </trkpt>
      <trkpt lat="52.209909" lon="22.061188">
        <ele>159.068221</ele>
        <time>2026-05-07T16:39:32.953Z</time>
      </trkpt>
      <trkpt lat="52.210772" lon="22.060598">
        <ele>159.069305</ele>
        <time>2026-05-07T16:39:45.218Z</time>
      </trkpt>
      <trkpt lat="52.210896" lon="22.060619">
        <ele>159.069450</ele>
        <time>2026-05-07T16:39:47.037Z</time>
      </trkpt>
      <trkpt lat="52.210998" lon="22.060723">
        <ele>159.130854</ele>
        <time>2026-05-07T16:39:48.811Z</time>
      </trkpt>
      <trkpt lat="52.211070" lon="22.060939">
        <ele>159.288259</ele>
        <time>2026-05-07T16:39:51.039Z</time>
      </trkpt>
      <trkpt lat="52.211095" lon="22.061194">
        <ele>159.453571</ele>
        <time>2026-05-07T16:39:53.384Z</time>
      </trkpt>
      <trkpt lat="52.211109" lon="22.061328">
        <ele>159.540587</ele>
        <time>2026-05-07T16:39:54.629Z</time>
      </trkpt>
      <trkpt lat="52.211117" lon="22.061645">
        <ele>159.743684</ele>
        <time>2026-05-07T16:39:57.554Z</time>
      </trkpt>
      <trkpt lat="52.211073" lon="22.061792">
        <ele>159.848411</ele>
        <time>2026-05-07T16:39:59.123Z</time>
      </trkpt>
      <trkpt lat="52.210987" lon="22.061921">
        <ele>159.970440</ele>
        <time>2026-05-07T16:40:01.004Z</time>
      </trkpt>
      <trkpt lat="52.210858" lon="22.061957">
        <ele>160.107162</ele>
        <time>2026-05-07T16:40:03.241Z</time>
      </trkpt>
      <trkpt lat="52.210350" lon="22.061896">
        <ele>160.639300</ele>
        <time>2026-05-07T16:40:11.908Z</time>
      </trkpt>
      <trkpt lat="52.210065" lon="22.061934">
        <ele>160.938030</ele>
        <time>2026-05-07T16:40:15.719Z</time>
      </trkpt>
      <trkpt lat="52.209310" lon="22.062242">
        <ele>161.140830</ele>
        <time>2026-05-07T16:40:26.408Z</time>
      </trkpt>
      <trkpt lat="52.209207" lon="22.062320">
        <ele>161.169253</ele>
        <time>2026-05-07T16:40:28.057Z</time>
      </trkpt>
      <trkpt lat="52.209117" lon="22.062438">
        <ele>161.198151</ele>
        <time>2026-05-07T16:40:29.734Z</time>
      </trkpt>
      <trkpt lat="52.209044" lon="22.062616">
        <ele>161.231004</ele>
        <time>2026-05-07T16:40:31.631Z</time>
      </trkpt>
      <trkpt lat="52.208494" lon="22.067406">
        <ele>159.800323</ele>
        <time>2026-05-07T16:41:02.917Z</time>
      </trkpt>
      <trkpt lat="52.208194" lon="22.069739">
        <ele>158.305069</ele>
        <time>2026-05-07T16:41:16.627Z</time>
      </trkpt>
      <trkpt lat="52.208203" lon="22.070330">
        <ele>158.108728</ele>
        <time>2026-05-07T16:41:19.973Z</time>
      </trkpt>
      <trkpt lat="52.208285" lon="22.070912">
        <ele>157.910394</ele>
        <time>2026-05-07T16:41:23.525Z</time>
      </trkpt>
      <trkpt lat="52.208319" lon="22.071447">
        <ele>157.731760</ele>
        <time>2026-05-07T16:41:27.003Z</time>
      </trkpt>
      <trkpt lat="52.208311" lon="22.071686">
        <ele>157.652267</ele>
        <time>2026-05-07T16:41:28.702Z</time>
      </trkpt>
      <trkpt lat="52.208251" lon="22.072133">
        <ele>157.500292</ele>
        <time>2026-05-07T16:41:32.454Z</time>
      </trkpt>
      <trkpt lat="52.208115" lon="22.072612">
        <ele>157.506198</ele>
        <time>2026-05-07T16:41:37.165Z</time>
      </trkpt>
      <trkpt lat="52.207761" lon="22.073397">
        <ele>157.754118</ele>
        <time>2026-05-07T16:41:46.078Z</time>
      </trkpt>
      <trkpt lat="52.207651" lon="22.073708">
        <ele>157.845459</ele>
        <time>2026-05-07T16:41:49.433Z</time>
      </trkpt>
      <trkpt lat="52.207574" lon="22.074036">
        <ele>157.934805</ele>
        <time>2026-05-07T16:41:52.610Z</time>
      </trkpt>
      <trkpt lat="52.206803" lon="22.079541">
        <ele>157.214700</ele>
        <time>2026-05-07T16:42:29.476Z</time>
      </trkpt>
      <trkpt lat="52.206730" lon="22.080630">
        <ele>157.141460</ele>
        <time>2026-05-07T16:42:38.360Z</time>
      </trkpt>
      <trkpt lat="52.206665" lon="22.081068">
        <ele>157.137629</ele>
        <time>2026-05-07T16:42:42.079Z</time>
      </trkpt>
      <trkpt lat="52.206629" lon="22.081312">
        <ele>157.138136</ele>
        <time>2026-05-07T16:42:44.163Z</time>
      </trkpt>
      <trkpt lat="52.206553" lon="22.081739">
        <ele>157.139035</ele>
        <time>2026-05-07T16:42:47.879Z</time>
      </trkpt>
      <trkpt lat="52.206401" lon="22.082265">
        <ele>157.140210</ele>
        <time>2026-05-07T16:42:52.331Z</time>
      </trkpt>
      <trkpt lat="52.206339" lon="22.082563">
        <ele>157.140846</ele>
        <time>2026-05-07T16:42:54.739Z</time>
      </trkpt>
      <trkpt lat="52.205433" lon="22.088474">
        <ele>154.916919</ele>
        <time>2026-05-07T16:43:32.923Z</time>
      </trkpt>
      <trkpt lat="52.205195" lon="22.090107">
        <ele>154.247692</ele>
        <time>2026-05-07T16:43:43.462Z</time>
      </trkpt>
      <trkpt lat="52.205191" lon="22.090611">
        <ele>154.061271</ele>
        <time>2026-05-07T16:43:46.663Z</time>
      </trkpt>
      <trkpt lat="52.205300" lon="22.091400">
        <ele>153.762136</ele>
        <time>2026-05-07T16:43:51.822Z</time>
      </trkpt>
      <trkpt lat="52.205319" lon="22.091739">
        <ele>153.636233</ele>
        <time>2026-05-07T16:43:53.997Z</time>
      </trkpt>
      <trkpt lat="52.205311" lon="22.092080">
        <ele>153.510022</ele>
        <time>2026-05-07T16:43:56.178Z</time>
      </trkpt>
      <trkpt lat="52.205276" lon="22.092403">
        <ele>153.417128</ele>
        <time>2026-05-07T16:43:58.319Z</time>
      </trkpt>
      <trkpt lat="52.204866" lon="22.094836">
        <ele>152.702622</ele>
        <time>2026-05-07T16:44:14.813Z</time>
      </trkpt>
      <trkpt lat="52.204665" lon="22.095388">
        <ele>152.694169</ele>
        <time>2026-05-07T16:44:18.956Z</time>
      </trkpt>
      <trkpt lat="52.204454" lon="22.095781">
        <ele>152.708461</ele>
        <time>2026-05-07T16:44:22.444Z</time>
      </trkpt>
      <trkpt lat="52.204301" lon="22.096153">
        <ele>152.720717</ele>
        <time>2026-05-07T16:44:25.527Z</time>
      </trkpt>
      <trkpt lat="52.204163" lon="22.096744">
        <ele>152.738018</ele>
        <time>2026-05-07T16:44:30.026Z</time>
      </trkpt>
      <trkpt lat="52.203672" lon="22.100385">
        <ele>154.445799</ele>
        <time>2026-05-07T16:45:03.813Z</time>
      </trkpt>
      <trkpt lat="52.203195" lon="22.103747">
        <ele>157.245236</ele>
        <time>2026-05-07T16:45:38.844Z</time>
      </trkpt>
      <trkpt lat="52.202708" lon="22.107262">
        <ele>159.283114</ele>
        <time>2026-05-07T16:46:10.586Z</time>
      </trkpt>
      <trkpt lat="52.202693" lon="22.107526">
        <ele>159.426726</ele>
        <time>2026-05-07T16:46:13.011Z</time>
      </trkpt>
      <trkpt lat="52.202730" lon="22.107726">
        <ele>159.539886</ele>
        <time>2026-05-07T16:46:14.932Z</time>
      </trkpt>
      <trkpt lat="52.202794" lon="22.107904">
        <ele>159.651668</ele>
        <time>2026-05-07T16:46:16.932Z</time>
      </trkpt>
      <trkpt lat="52.202881" lon="22.108042">
        <ele>159.758905</ele>
        <time>2026-05-07T16:46:18.913Z</time>
      </trkpt>
      <trkpt lat="52.203267" lon="22.108397">
        <ele>160.150515</ele>
        <time>2026-05-07T16:46:25.858Z</time>
      </trkpt>
      <trkpt lat="52.203342" lon="22.108621">
        <ele>160.236529</ele>
        <time>2026-05-07T16:46:28.139Z</time>
      </trkpt>
      <trkpt lat="52.203333" lon="22.108861">
        <ele>160.267366</ele>
        <time>2026-05-07T16:46:30.199Z</time>
      </trkpt>
      <trkpt lat="52.203320" lon="22.108997">
        <ele>160.285019</ele>
        <time>2026-05-07T16:46:31.275Z</time>
      </trkpt>
      <trkpt lat="52.203268" lon="22.109343">
        <ele>160.330708</ele>
        <time>2026-05-07T16:46:33.953Z</time>
      </trkpt>
      <trkpt lat="52.203199" lon="22.109476">
        <ele>160.353056</ele>
        <time>2026-05-07T16:46:35.193Z</time>
      </trkpt>
      <trkpt lat="52.203083" lon="22.109556">
        <ele>160.379410</ele>
        <time>2026-05-07T16:46:36.625Z</time>
      </trkpt>
      <trkpt lat="52.202771" lon="22.109546">
        <ele>160.444713</ele>
        <time>2026-05-07T16:46:40.175Z</time>
      </trkpt>
      <trkpt lat="52.202639" lon="22.109572">
        <ele>160.472536</ele>
        <time>2026-05-07T16:46:41.648Z</time>
      </trkpt>
      <trkpt lat="52.202549" lon="22.109639">
        <ele>160.493237</ele>
        <time>2026-05-07T16:46:42.758Z</time>
      </trkpt>
      <trkpt lat="52.202420" lon="22.109804">
        <ele>160.527538</ele>
        <time>2026-05-07T16:46:44.591Z</time>
      </trkpt>
      <trkpt lat="52.202333" lon="22.110041">
        <ele>160.562969</ele>
        <time>2026-05-07T16:46:46.414Z</time>
      </trkpt>
      <trkpt lat="52.201589" lon="22.115718">
        <ele>162.373499</ele>
        <time>2026-05-07T16:47:34.921Z</time>
      </trkpt>
      <trkpt lat="52.201214" lon="22.118582">
        <ele>163.591018</ele>
        <time>2026-05-07T16:48:00.677Z</time>
      </trkpt>
      <trkpt lat="52.201210" lon="22.118610">
        <ele>163.603188</ele>
        <time>2026-05-07T16:48:00.939Z</time>
      </trkpt>
      <trkpt lat="52.200330" lon="22.125098">
        <ele>165.440130</ele>
        <time>2026-05-07T16:48:54.650Z</time>
      </trkpt>
      <trkpt lat="52.200179" lon="22.126423">
        <ele>165.879892</ele>
        <time>2026-05-07T16:49:05.705Z</time>
      </trkpt>
      <trkpt lat="52.200046" lon="22.127678">
        <ele>166.238697</ele>
        <time>2026-05-07T16:49:16.844Z</time>
      </trkpt>
      <trkpt lat="52.199704" lon="22.129842">
        <ele>166.163778</ele>
        <time>2026-05-07T16:49:34.512Z</time>
      </trkpt>
      <trkpt lat="52.199690" lon="22.130067">
        <ele>166.156197</ele>
        <time>2026-05-07T16:49:35.838Z</time>
      </trkpt>
      <trkpt lat="52.199704" lon="22.130275">
        <ele>166.149182</ele>
        <time>2026-05-07T16:49:37.031Z</time>
      </trkpt>
      <trkpt lat="52.199835" lon="22.130989">
        <ele>165.674549</ele>
        <time>2026-05-07T16:49:41.160Z</time>
      </trkpt>
      <trkpt lat="52.199843" lon="22.131275">
        <ele>165.463397</ele>
        <time>2026-05-07T16:49:42.722Z</time>
      </trkpt>
      <trkpt lat="52.199819" lon="22.131759">
        <ele>165.105268</ele>
        <time>2026-05-07T16:49:45.385Z</time>
      </trkpt>
      <trkpt lat="52.199730" lon="22.132122">
        <ele>164.816920</ele>
        <time>2026-05-07T16:49:47.498Z</time>
      </trkpt>
      <trkpt lat="52.199358" lon="22.132819">
        <ele>164.135279</ele>
        <time>2026-05-07T16:49:52.963Z</time>
      </trkpt>
      <trkpt lat="52.199247" lon="22.133204">
        <ele>163.987508</ele>
        <time>2026-05-07T16:49:55.886Z</time>
      </trkpt>
      <trkpt lat="52.198867" lon="22.136171">
        <ele>164.001472</ele>
        <time>2026-05-07T16:50:19.563Z</time>
      </trkpt>
      <trkpt lat="52.198584" lon="22.138131">
        <ele>163.587672</ele>
        <time>2026-05-07T16:50:33.065Z</time>
      </trkpt>
      <trkpt lat="52.198564" lon="22.138586">
        <ele>163.493930</ele>
        <time>2026-05-07T16:50:35.904Z</time>
      </trkpt>
      <trkpt lat="52.198599" lon="22.138880">
        <ele>163.382939</ele>
        <time>2026-05-07T16:50:37.746Z</time>
      </trkpt>
      <trkpt lat="52.198687" lon="22.139185">
        <ele>163.201018</ele>
        <time>2026-05-07T16:50:39.798Z</time>
      </trkpt>
      <trkpt lat="52.198893" lon="22.139714">
        <ele>162.862792</ele>
        <time>2026-05-07T16:50:43.581Z</time>
      </trkpt>
      <trkpt lat="52.198989" lon="22.139902">
        <ele>162.730740</ele>
        <time>2026-05-07T16:50:45.037Z</time>
      </trkpt>
      <trkpt lat="52.199116" lon="22.140057">
        <ele>162.591096</ele>
        <time>2026-05-07T16:50:46.561Z</time>
      </trkpt>
      <trkpt lat="52.199305" lon="22.140087">
        <ele>162.423902</ele>
        <time>2026-05-07T16:50:48.381Z</time>
      </trkpt>
      <trkpt lat="52.199412" lon="22.140006">
        <ele>162.320045</ele>
        <time>2026-05-07T16:50:49.518Z</time>
      </trkpt>
      <trkpt lat="52.199510" lon="22.139858">
        <ele>162.202468</ele>
        <time>2026-05-07T16:50:50.813Z</time>
      </trkpt>
      <trkpt lat="52.199701" lon="22.139462">
        <ele>161.930532</ele>
        <time>2026-05-07T16:50:53.853Z</time>
      </trkpt>
      <trkpt lat="52.199845" lon="22.139350">
        <ele>161.911079</ele>
        <time>2026-05-07T16:50:55.491Z</time>
      </trkpt>
      <trkpt lat="52.200000" lon="22.139376">
        <ele>161.960273</ele>
        <time>2026-05-07T16:50:57.128Z</time>
      </trkpt>
      <trkpt lat="52.200080" lon="22.139471">
        <ele>161.991511</ele>
        <time>2026-05-07T16:50:58.188Z</time>
      </trkpt>
      <trkpt lat="52.200152" lon="22.139654">
        <ele>162.033591</ele>
        <time>2026-05-07T16:50:59.677Z</time>
      </trkpt>
      <trkpt lat="52.200222" lon="22.140054">
        <ele>162.114085</ele>
        <time>2026-05-07T16:51:02.708Z</time>
      </trkpt>
      <trkpt lat="52.200240" lon="22.140193">
        <ele>162.141576</ele>
        <time>2026-05-07T16:51:03.779Z</time>
      </trkpt>
      <trkpt lat="52.200214" lon="22.140479">
        <ele>162.197524</ele>
        <time>2026-05-07T16:51:06.088Z</time>
      </trkpt>
      <trkpt lat="52.200132" lon="22.140686">
        <ele>162.245217</ele>
        <time>2026-05-07T16:51:08.127Z</time>
      </trkpt>
      <trkpt lat="52.200003" lon="22.140821">
        <ele>162.293602</ele>
        <time>2026-05-07T16:51:10.309Z</time>
      </trkpt>
      <trkpt lat="52.199848" lon="22.140864">
        <ele>162.343240</ele>
        <time>2026-05-07T16:51:12.631Z</time>
      </trkpt>
      <trkpt lat="52.199409" lon="22.140817">
        <ele>162.595105</ele>
        <time>2026-05-07T16:51:19.617Z</time>
      </trkpt>
      <trkpt lat="52.199160" lon="22.140863">
        <ele>162.928588</ele>
        <time>2026-05-07T16:51:23.822Z</time>
      </trkpt>
      <trkpt lat="52.198328" lon="22.141209">
        <ele>164.071204</ele>
        <time>2026-05-07T16:51:38.351Z</time>
      </trkpt>
      <trkpt lat="52.198119" lon="22.141328">
        <ele>164.365790</ele>
        <time>2026-05-07T16:51:41.978Z</time>
      </trkpt>
      <trkpt lat="52.198017" lon="22.141438">
        <ele>164.528504</ele>
        <time>2026-05-07T16:51:43.959Z</time>
      </trkpt>
      <trkpt lat="52.197867" lon="22.141758">
        <ele>164.846217</ele>
        <time>2026-05-07T16:51:47.902Z</time>
      </trkpt>
      <trkpt lat="52.197430" lon="22.143207">
        <ele>165.293981</ele>
        <time>2026-05-07T16:52:01.889Z</time>
      </trkpt>
      <trkpt lat="52.196818" lon="22.144861">
        <ele>165.731965</ele>
        <time>2026-05-07T16:52:15.617Z</time>
      </trkpt>
      <trkpt lat="52.196117" lon="22.146518">
        <ele>165.979286</ele>
        <time>2026-05-07T16:52:31.138Z</time>
      </trkpt>
      <trkpt lat="52.195596" lon="22.147614">
        <ele>166.272573</ele>
        <time>2026-05-07T16:52:42.534Z</time>
      </trkpt>
      <trkpt lat="52.194878" lon="22.148950">
        <ele>166.689623</ele>
        <time>2026-05-07T16:52:56.737Z</time>
      </trkpt>
      <trkpt lat="52.194645" lon="22.149232">
        <ele>166.782066</ele>
        <time>2026-05-07T16:53:00.345Z</time>
      </trkpt>
      <trkpt lat="52.194078" lon="22.149753">
        <ele>166.983472</ele>
        <time>2026-05-07T16:53:08.732Z</time>
      </trkpt>
      <trkpt lat="52.193466" lon="22.150642">
        <ele>167.237092</ele>
        <time>2026-05-07T16:53:19.587Z</time>
      </trkpt>
      <trkpt lat="52.192926" lon="22.151670">
        <ele>167.077395</ele>
        <time>2026-05-07T16:53:29.814Z</time>
      </trkpt>
      <trkpt lat="52.192660" lon="22.152012">
        <ele>166.995473</ele>
        <time>2026-05-07T16:53:33.526Z</time>
      </trkpt>
      <trkpt lat="52.192411" lon="22.152330">
        <ele>166.918982</ele>
        <time>2026-05-07T16:53:36.816Z</time>
      </trkpt>
      <trkpt lat="52.191448" lon="22.153377">
        <ele>166.376163</ele>
        <time>2026-05-07T16:53:48.576Z</time>
      </trkpt>
      <trkpt lat="52.190794" lon="22.153857">
        <ele>165.957538</ele>
        <time>2026-05-07T16:53:56.266Z</time>
      </trkpt>
      <trkpt lat="52.190658" lon="22.153981">
        <ele>165.866591</ele>
        <time>2026-05-07T16:53:57.950Z</time>
      </trkpt>
      <trkpt lat="52.190280" lon="22.154326">
        <ele>165.410850</ele>
        <time>2026-05-07T16:54:02.690Z</time>
      </trkpt>
      <trkpt lat="52.188995" lon="22.155189">
        <ele>163.579827</ele>
        <time>2026-05-07T16:54:15.657Z</time>
      </trkpt>
      <trkpt lat="52.188075" lon="22.155766">
        <ele>162.182314</ele>
        <time>2026-05-07T16:54:24.226Z</time>
      </trkpt>
      <trkpt lat="52.187042" lon="22.156286">
        <ele>160.879096</ele>
        <time>2026-05-07T16:54:34.538Z</time>
      </trkpt>
      <trkpt lat="52.186141" lon="22.156723">
        <ele>161.240101</ele>
        <time>2026-05-07T16:54:46.871Z</time>
      </trkpt>
      <trkpt lat="52.185980" lon="22.156839">
        <ele>161.307698</ele>
        <time>2026-05-07T16:54:49.516Z</time>
      </trkpt>
      <trkpt lat="52.185767" lon="22.157072">
        <ele>161.406195</ele>
        <time>2026-05-07T16:54:53.432Z</time>
      </trkpt>
      <trkpt lat="52.185687" lon="22.157203">
        <ele>161.449731</ele>
        <time>2026-05-07T16:54:55.173Z</time>
      </trkpt>
      <trkpt lat="52.185524" lon="22.157546">
        <ele>161.539003</ele>
        <time>2026-05-07T16:54:59.205Z</time>
      </trkpt>
      <trkpt lat="52.185301" lon="22.158129">
        <ele>161.639562</ele>
        <time>2026-05-07T16:55:05.284Z</time>
      </trkpt>
      <trkpt lat="52.185031" lon="22.158607">
        <ele>161.734674</ele>
        <time>2026-05-07T16:55:10.433Z</time>
      </trkpt>
      <trkpt lat="52.184828" lon="22.158843">
        <ele>161.794176</ele>
        <time>2026-05-07T16:55:13.374Z</time>
      </trkpt>
      <trkpt lat="52.184556" lon="22.159053">
        <ele>161.866005</ele>
        <time>2026-05-07T16:55:16.768Z</time>
      </trkpt>
      <trkpt lat="52.184256" lon="22.159200">
        <ele>161.940773</ele>
        <time>2026-05-07T16:55:20.167Z</time>
      </trkpt>
      <trkpt lat="52.183948" lon="22.159238">
        <ele>161.934364</ele>
        <time>2026-05-07T16:55:23.520Z</time>
      </trkpt>
      <trkpt lat="52.182928" lon="22.159289">
        <ele>161.888289</ele>
        <time>2026-05-07T16:55:35.962Z</time>
      </trkpt>
      <trkpt lat="52.182789" lon="22.159363">
        <ele>161.881687</ele>
        <time>2026-05-07T16:55:37.892Z</time>
      </trkpt>
      <trkpt lat="52.182722" lon="22.159448">
        <ele>161.877854</ele>
        <time>2026-05-07T16:55:39.024Z</time>
      </trkpt>
      <trkpt lat="52.182614" lon="22.159752">
        <ele>161.868128</ele>
        <time>2026-05-07T16:55:41.828Z</time>
      </trkpt>
      <trkpt lat="52.182502" lon="22.162518">
        <ele>160.643041</ele>
        <time>2026-05-07T16:55:59.385Z</time>
      </trkpt>
      <trkpt lat="52.181662" lon="22.162502">
        <ele>159.835588</ele>
        <time>2026-05-07T16:56:10.008Z</time>
      </trkpt>
      <trkpt lat="52.180352" lon="22.162600">
        <ele>158.845551</ele>
        <time>2026-05-07T16:56:28.713Z</time>
      </trkpt>
      <trkpt lat="52.180307" lon="22.162890">
        <ele>158.958699</ele>
        <time>2026-05-07T16:56:31.315Z</time>
      </trkpt>
      <trkpt lat="52.180206" lon="22.163559">
        <ele>159.219302</ele>
        <time>2026-05-07T16:56:37.591Z</time>
      </trkpt>
      <trkpt lat="52.180171" lon="22.163795">
        <ele>159.311142</ele>
        <time>2026-05-07T16:56:39.792Z</time>
      </trkpt>
      <trkpt lat="52.180099" lon="22.164284">
        <ele>159.501362</ele>
        <time>2026-05-07T16:56:44.396Z</time>
      </trkpt>
      <trkpt lat="52.180037" lon="22.164711">
        <ele>159.667340</ele>
        <time>2026-05-07T16:56:48.652Z</time>
      </trkpt>
      <trkpt lat="52.179856" lon="22.165912">
        <ele>160.347859</ele>
        <time>2026-05-07T16:56:59.782Z</time>
      </trkpt>
      <trkpt lat="52.179574" lon="22.167829">
        <ele>161.611547</ele>
        <time>2026-05-07T16:57:18.076Z</time>
      </trkpt>
      <trkpt lat="52.179518" lon="22.168208">
        <ele>161.913403</ele>
        <time>2026-05-07T16:57:21.894Z</time>
      </trkpt>
      <trkpt lat="52.179384" lon="22.169118">
        <ele>162.718020</ele>
        <time>2026-05-07T16:57:30.974Z</time>
      </trkpt>
      <trkpt lat="52.179168" lon="22.170591">
        <ele>164.020149</ele>
        <time>2026-05-07T16:57:46.259Z</time>
      </trkpt>
      <trkpt lat="52.179103" lon="22.171005">
        <ele>164.392239</ele>
        <time>2026-05-07T16:57:50.918Z</time>
      </trkpt>
      <trkpt lat="52.178753" lon="22.173427">
        <ele>166.595434</ele>
        <time>2026-05-07T16:58:17.392Z</time>
      </trkpt>
      <trkpt lat="52.178326" lon="22.176300">
        <ele>166.759493</ele>
        <time>2026-05-07T16:58:40.339Z</time>
      </trkpt>
      <trkpt lat="52.178234" lon="22.176890">
        <ele>166.169993</ele>
        <time>2026-05-07T16:58:43.687Z</time>
      </trkpt>
      <trkpt lat="52.178154" lon="22.177426">
        <ele>165.297715</ele>
        <time>2026-05-07T16:58:46.512Z</time>
      </trkpt>
      <trkpt lat="52.178130" lon="22.177588">
        <ele>165.034187</ele>
        <time>2026-05-07T16:58:47.339Z</time>
      </trkpt>
      <trkpt lat="52.178076" lon="22.177992">
        <ele>164.380373</ele>
        <time>2026-05-07T16:58:49.347Z</time>
      </trkpt>
      <trkpt lat="52.178026" lon="22.178331">
        <ele>163.829050</ele>
        <time>2026-05-07T16:58:51.041Z</time>
      </trkpt>
      <trkpt lat="52.177828" lon="22.179627">
        <ele>161.788440</ele>
        <time>2026-05-07T16:58:57.809Z</time>
      </trkpt>
      <trkpt lat="52.177745" lon="22.180184">
        <ele>161.044350</ele>
        <time>2026-05-07T16:59:00.969Z</time>
      </trkpt>
      <trkpt lat="52.177668" lon="22.180724">
        <ele>160.324667</ele>
        <time>2026-05-07T16:59:04.011Z</time>
      </trkpt>
      <trkpt lat="52.177549" lon="22.181540">
        <ele>159.235862</ele>
        <time>2026-05-07T16:59:08.641Z</time>
      </trkpt>
      <trkpt lat="52.177249" lon="22.183515">
        <ele>156.994286</ele>
        <time>2026-05-07T16:59:19.254Z</time>
      </trkpt>
      <trkpt lat="52.177160" lon="22.184102">
        <ele>156.392466</ele>
        <time>2026-05-07T16:59:22.486Z</time>
      </trkpt>
      <trkpt lat="52.176522" lon="22.188419">
        <ele>154.433273</ele>
        <time>2026-05-07T16:59:52.039Z</time>
      </trkpt>
      <trkpt lat="52.176410" lon="22.189207">
        <ele>154.127129</ele>
        <time>2026-05-07T16:59:57.277Z</time>
      </trkpt>
      <trkpt lat="52.176388" lon="22.189366">
        <ele>154.065438</ele>
        <time>2026-05-07T16:59:58.295Z</time>
      </trkpt>
      <trkpt lat="52.176365" lon="22.189521">
        <ele>154.005081</ele>
        <time>2026-05-07T16:59:59.220Z</time>
      </trkpt>
      <trkpt lat="52.176341" lon="22.189697">
        <ele>153.936842</ele>
        <time>2026-05-07T17:00:00.260Z</time>
      </trkpt>
      <trkpt lat="52.176158" lon="22.190904">
        <ele>153.563107</ele>
        <time>2026-05-07T17:00:07.917Z</time>
      </trkpt>
      <trkpt lat="52.176106" lon="22.191246">
        <ele>153.712145</ele>
        <time>2026-05-07T17:00:10.297Z</time>
      </trkpt>
      <trkpt lat="52.176008" lon="22.191918">
        <ele>154.004314</ele>
        <time>2026-05-07T17:00:14.814Z</time>
      </trkpt>
      <trkpt lat="52.175675" lon="22.194164">
        <ele>155.137395</ele>
        <time>2026-05-07T17:00:38.420Z</time>
      </trkpt>
      <trkpt lat="52.175659" lon="22.194291">
        <ele>155.229507</ele>
        <time>2026-05-07T17:00:39.908Z</time>
      </trkpt>
      <trkpt lat="52.175644" lon="22.194407">
        <ele>155.313731</ele>
        <time>2026-05-07T17:00:41.242Z</time>
      </trkpt>
      <trkpt lat="52.175623" lon="22.194549">
        <ele>155.417507</ele>
        <time>2026-05-07T17:00:42.893Z</time>
      </trkpt>
      <trkpt lat="52.175569" lon="22.194919">
        <ele>155.687716</ele>
        <time>2026-05-07T17:00:47.130Z</time>
      </trkpt>
      <trkpt lat="52.175547" lon="22.195039">
        <ele>155.776698</ele>
        <time>2026-05-07T17:00:48.521Z</time>
      </trkpt>
      <trkpt lat="52.175252" lon="22.197030">
        <ele>156.767276</ele>
        <time>2026-05-07T17:01:06.354Z</time>
      </trkpt>
      <trkpt lat="52.175038" lon="22.198473">
        <ele>156.583074</ele>
        <time>2026-05-07T17:01:15.789Z</time>
      </trkpt>
      <trkpt lat="52.174494" lon="22.202151">
        <ele>155.996105</ele>
        <time>2026-05-07T17:01:41.606Z</time>
      </trkpt>
      <trkpt lat="52.174464" lon="22.202334">
        <ele>155.958686</ele>
        <time>2026-05-07T17:01:42.970Z</time>
      </trkpt>
      <trkpt lat="52.173816" lon="22.206724">
        <ele>154.725817</ele>
        <time>2026-05-07T17:02:13.074Z</time>
      </trkpt>
      <trkpt lat="52.173267" lon="22.210424">
        <ele>152.956993</ele>
        <time>2026-05-07T17:02:35.980Z</time>
      </trkpt>
      <trkpt lat="52.173202" lon="22.210856">
        <ele>152.767793</ele>
        <time>2026-05-07T17:02:39.038Z</time>
      </trkpt>
      <trkpt lat="52.173169" lon="22.211098">
        <ele>152.717064</ele>
        <time>2026-05-07T17:02:40.770Z</time>
      </trkpt>
      <trkpt lat="52.173146" lon="22.211237">
        <ele>152.687603</ele>
        <time>2026-05-07T17:02:41.720Z</time>
      </trkpt>
      <trkpt lat="52.173090" lon="22.211615">
        <ele>152.608029</ele>
        <time>2026-05-07T17:02:44.606Z</time>
      </trkpt>
      <trkpt lat="52.173010" lon="22.212160">
        <ele>152.493356</ele>
        <time>2026-05-07T17:02:48.734Z</time>
      </trkpt>
      <trkpt lat="52.172791" lon="22.213638">
        <ele>152.139418</ele>
        <time>2026-05-07T17:02:59.163Z</time>
      </trkpt>
      <trkpt lat="52.172752" lon="22.213912">
        <ele>151.817103</ele>
        <time>2026-05-07T17:03:00.912Z</time>
      </trkpt>
      <trkpt lat="52.172734" lon="22.214029">
        <ele>151.678881</ele>
        <time>2026-05-07T17:03:01.660Z</time>
      </trkpt>
      <trkpt lat="52.172591" lon="22.214989">
        <ele>150.546854</ele>
        <time>2026-05-07T17:03:07.144Z</time>
      </trkpt>
      <trkpt lat="52.172413" lon="22.216244">
        <ele>149.070814</ele>
        <time>2026-05-07T17:03:13.830Z</time>
      </trkpt>
      <trkpt lat="52.172146" lon="22.218078">
        <ele>148.830873</ele>
        <time>2026-05-07T17:03:23.465Z</time>
      </trkpt>
      <trkpt lat="52.171939" lon="22.219224">
        <ele>148.830873</ele>
        <time>2026-05-07T17:03:30.497Z</time>
      </trkpt>
      <trkpt lat="52.171819" lon="22.219753">
        <ele>148.830873</ele>
        <time>2026-05-07T17:03:34.221Z</time>
      </trkpt>
    </trkseg>
  </trk>
</gpx>